<?xml version="1.0" encoding="UTF-8" standalone="no" ?><gpx xmlns="http://www.topografix.com/GPX/1/1" xmlns:gpxx="http://www.garmin.com/xmlschemas/GpxExtensions/v3" xmlns:gpxtpx="http://www.garmin.com/xmlschemas/TrackPointExtension/v1" creator="Foretrex 301" version="1.1" xmlns:xsi="http://www.w3.org/2001/XMLSchema-instance" xsi:schemaLocation="http://www.topografix.com/GPX/1/1 http://www.topografix.com/GPX/1/1/gpx.xsd http://www.garmin.com/xmlschemas/GpxExtensions/v3 http://www.garmin.com/xmlschemas/GpxExtensions/v3/GpxExtensionsv3.xsd"><metadata><link href="http://www.garmin.com"><text>Garmin International</text></link><time>2011-09-07T13:59:33Z</time></metadata><trk><name>ACTIVE LOG: 07 SEP 2011 08:59</name><trkseg><trkpt lat="51.998253" lon="-2.156472"><ele>14.08</ele><time>2011-09-07T08:59:15Z</time></trkpt><trkpt lat="51.998250" lon="-2.156468"><ele>14.08</ele><time>2011-09-07T08:59:21Z</time></trkpt><trkpt lat="51.998170" lon="-2.156479"><ele>14.56</ele><time>2011-09-07T08:59:28Z</time></trkpt><trkpt lat="51.998053" lon="-2.156548"><ele>15.04</ele><time>2011-09-07T08:59:36Z</time></trkpt><trkpt lat="51.998024" lon="-2.156563"><ele>15.52</ele><time>2011-09-07T08:59:38Z</time></trkpt><trkpt lat="51.997965" lon="-2.156680"><ele>16.48</ele><time>2011-09-07T08:59:45Z</time></trkpt><trkpt lat="51.998087" lon="-2.156876"><ele>16.48</ele><time>2011-09-07T08:59:56Z</time></trkpt><trkpt lat="51.998168" lon="-2.156982"><ele>15.52</ele><time>2011-09-07T09:00:05Z</time></trkpt><trkpt lat="51.998225" lon="-2.157081"><ele>16.48</ele><time>2011-09-07T09:00:13Z</time></trkpt><trkpt lat="51.998320" lon="-2.157206"><ele>16.48</ele><time>2011-09-07T09:00:24Z</time></trkpt><trkpt lat="51.998426" lon="-2.157312"><ele>16.48</ele><time>2011-09-07T09:00:35Z</time></trkpt><trkpt lat="51.998520" lon="-2.157418"><ele>16.00</ele><time>2011-09-07T09:00:46Z</time></trkpt><trkpt lat="51.998547" lon="-2.157442"><ele>15.52</ele><time>2011-09-07T09:00:52Z</time></trkpt><trkpt lat="51.998560" lon="-2.157444"><ele>15.52</ele><time>2011-09-07T09:00:59Z</time></trkpt><trkpt lat="51.998583" lon="-2.157432"><ele>15.52</ele><time>2011-09-07T09:01:09Z</time></trkpt><trkpt lat="51.998598" lon="-2.157435"><ele>15.04</ele><time>2011-09-07T09:01:26Z</time></trkpt><trkpt lat="51.998610" lon="-2.157424"><ele>14.56</ele><time>2011-09-07T09:01:38Z</time></trkpt><trkpt lat="51.998616" lon="-2.157414"><ele>14.08</ele><time>2011-09-07T09:01:49Z</time></trkpt><trkpt lat="51.998634" lon="-2.157397"><ele>14.56</ele><time>2011-09-07T09:02:04Z</time></trkpt><trkpt lat="51.998664" lon="-2.157376"><ele>14.08</ele><time>2011-09-07T09:02:08Z</time></trkpt><trkpt lat="51.998744" lon="-2.157306"><ele>15.04</ele><time>2011-09-07T09:02:17Z</time></trkpt><trkpt lat="51.998799" lon="-2.157240"><ele>15.52</ele><time>2011-09-07T09:02:24Z</time></trkpt><trkpt lat="51.998867" lon="-2.157129"><ele>16.00</ele><time>2011-09-07T09:02:33Z</time></trkpt><trkpt lat="51.998927" lon="-2.157007"><ele>15.04</ele><time>2011-09-07T09:02:42Z</time></trkpt><trkpt lat="51.998987" lon="-2.156897"><ele>13.60</ele><time>2011-09-07T09:02:51Z</time></trkpt><trkpt lat="51.999082" lon="-2.156801"><ele>12.63</ele><time>2011-09-07T09:03:01Z</time></trkpt><trkpt lat="51.999130" lon="-2.156731"><ele>12.63</ele><time>2011-09-07T09:03:07Z</time></trkpt><trkpt lat="51.999209" lon="-2.156629"><ele>11.19</ele><time>2011-09-07T09:03:16Z</time></trkpt><trkpt lat="51.999307" lon="-2.156509"><ele>10.23</ele><time>2011-09-07T09:03:27Z</time></trkpt><trkpt lat="51.999396" lon="-2.156419"><ele>9.27</ele><time>2011-09-07T09:03:37Z</time></trkpt><trkpt lat="51.999485" lon="-2.156363"><ele>10.23</ele><time>2011-09-07T09:03:46Z</time></trkpt><trkpt lat="51.999561" lon="-2.156311"><ele>11.19</ele><time>2011-09-07T09:03:54Z</time></trkpt><trkpt lat="51.999613" lon="-2.156274"><ele>12.15</ele><time>2011-09-07T09:04:01Z</time></trkpt><trkpt lat="51.999727" lon="-2.156188"><ele>15.52</ele><time>2011-09-07T09:04:09Z</time></trkpt><trkpt lat="51.999821" lon="-2.156109"><ele>17.92</ele><time>2011-09-07T09:04:18Z</time></trkpt><trkpt lat="51.999925" lon="-2.156031"><ele>16.96</ele><time>2011-09-07T09:04:28Z</time></trkpt><trkpt lat="52.000025" lon="-2.155952"><ele>16.00</ele><time>2011-09-07T09:04:38Z</time></trkpt><trkpt lat="52.000104" lon="-2.155880"><ele>15.52</ele><time>2011-09-07T09:04:47Z</time></trkpt><trkpt lat="52.000176" lon="-2.155818"><ele>14.56</ele><time>2011-09-07T09:04:55Z</time></trkpt><trkpt lat="52.000271" lon="-2.155732"><ele>14.08</ele><time>2011-09-07T09:05:05Z</time></trkpt><trkpt lat="52.000356" lon="-2.155652"><ele>13.12</ele><time>2011-09-07T09:05:14Z</time></trkpt><trkpt lat="52.000447" lon="-2.155584"><ele>13.60</ele><time>2011-09-07T09:05:23Z</time></trkpt><trkpt lat="52.000558" lon="-2.155512"><ele>13.60</ele><time>2011-09-07T09:05:33Z</time></trkpt><trkpt lat="52.000662" lon="-2.155439"><ele>13.60</ele><time>2011-09-07T09:05:43Z</time></trkpt><trkpt lat="52.000757" lon="-2.155374"><ele>14.08</ele><time>2011-09-07T09:05:52Z</time></trkpt><trkpt lat="52.000857" lon="-2.155293"><ele>15.04</ele><time>2011-09-07T09:06:02Z</time></trkpt><trkpt lat="52.000970" lon="-2.155196"><ele>15.04</ele><time>2011-09-07T09:06:14Z</time></trkpt><trkpt lat="52.001058" lon="-2.155130"><ele>14.56</ele><time>2011-09-07T09:06:23Z</time></trkpt><trkpt lat="52.001172" lon="-2.155047"><ele>15.04</ele><time>2011-09-07T09:06:35Z</time></trkpt><trkpt lat="52.001242" lon="-2.154994"><ele>15.52</ele><time>2011-09-07T09:06:42Z</time></trkpt><trkpt lat="52.001355" lon="-2.154923"><ele>16.48</ele><time>2011-09-07T09:06:53Z</time></trkpt><trkpt lat="52.001450" lon="-2.154838"><ele>16.48</ele><time>2011-09-07T09:07:03Z</time></trkpt><trkpt lat="52.001537" lon="-2.154782"><ele>16.48</ele><time>2011-09-07T09:07:12Z</time></trkpt><trkpt lat="52.001644" lon="-2.154727"><ele>16.96</ele><time>2011-09-07T09:07:22Z</time></trkpt><trkpt lat="52.001715" lon="-2.154687"><ele>16.00</ele><time>2011-09-07T09:07:29Z</time></trkpt><trkpt lat="52.001797" lon="-2.154632"><ele>16.00</ele><time>2011-09-07T09:07:37Z</time></trkpt><trkpt lat="52.001861" lon="-2.154593"><ele>15.52</ele><time>2011-09-07T09:07:45Z</time></trkpt><trkpt lat="52.001877" lon="-2.154584"><ele>15.04</ele><time>2011-09-07T09:07:52Z</time></trkpt><trkpt lat="52.001879" lon="-2.154585"><ele>15.04</ele><time>2011-09-07T09:08:10Z</time></trkpt><trkpt lat="52.001890" lon="-2.154583"><ele>14.56</ele><time>2011-09-07T09:08:28Z</time></trkpt><trkpt lat="52.001896" lon="-2.154588"><ele>15.04</ele><time>2011-09-07T09:08:46Z</time></trkpt><trkpt lat="52.001908" lon="-2.154576"><ele>14.08</ele><time>2011-09-07T09:09:29Z</time></trkpt><trkpt lat="52.001979" lon="-2.154504"><ele>13.12</ele><time>2011-09-07T09:09:35Z</time></trkpt><trkpt lat="52.001995" lon="-2.154486"><ele>13.12</ele><time>2011-09-07T09:09:37Z</time></trkpt><trkpt lat="52.002016" lon="-2.154472"><ele>13.12</ele><time>2011-09-07T09:09:40Z</time></trkpt><trkpt lat="52.002135" lon="-2.154393"><ele>14.08</ele><time>2011-09-07T09:09:51Z</time></trkpt><trkpt lat="52.002228" lon="-2.154317"><ele>15.04</ele><time>2011-09-07T09:10:01Z</time></trkpt><trkpt lat="52.002329" lon="-2.154227"><ele>16.96</ele><time>2011-09-07T09:10:12Z</time></trkpt><trkpt lat="52.002434" lon="-2.154164"><ele>17.44</ele><time>2011-09-07T09:10:22Z</time></trkpt><trkpt lat="52.002529" lon="-2.154107"><ele>17.92</ele><time>2011-09-07T09:10:32Z</time></trkpt><trkpt lat="52.002614" lon="-2.154067"><ele>17.92</ele><time>2011-09-07T09:10:42Z</time></trkpt><trkpt lat="52.002718" lon="-2.154011"><ele>17.44</ele><time>2011-09-07T09:10:52Z</time></trkpt><trkpt lat="52.002810" lon="-2.153962"><ele>16.00</ele><time>2011-09-07T09:11:02Z</time></trkpt><trkpt lat="52.002916" lon="-2.153896"><ele>15.52</ele><time>2011-09-07T09:11:13Z</time></trkpt><trkpt lat="52.002925" lon="-2.153894"><ele>15.52</ele><time>2011-09-07T09:11:14Z</time></trkpt><trkpt lat="52.003038" lon="-2.153828"><ele>15.04</ele><time>2011-09-07T09:11:26Z</time></trkpt><trkpt lat="52.003152" lon="-2.153765"><ele>15.04</ele><time>2011-09-07T09:11:37Z</time></trkpt><trkpt lat="52.003243" lon="-2.153703"><ele>15.04</ele><time>2011-09-07T09:11:46Z</time></trkpt><trkpt lat="52.003341" lon="-2.153656"><ele>15.04</ele><time>2011-09-07T09:11:56Z</time></trkpt><trkpt lat="52.003431" lon="-2.153594"><ele>15.04</ele><time>2011-09-07T09:12:06Z</time></trkpt><trkpt lat="52.003522" lon="-2.153537"><ele>15.52</ele><time>2011-09-07T09:12:16Z</time></trkpt><trkpt lat="52.003545" lon="-2.153520"><ele>15.04</ele><time>2011-09-07T09:12:27Z</time></trkpt><trkpt lat="52.003564" lon="-2.153522"><ele>14.08</ele><time>2011-09-07T09:12:40Z</time></trkpt><trkpt lat="52.003569" lon="-2.153527"><ele>14.08</ele><time>2011-09-07T09:12:52Z</time></trkpt><trkpt lat="52.003580" lon="-2.153530"><ele>14.08</ele><time>2011-09-07T09:12:55Z</time></trkpt><trkpt lat="52.003664" lon="-2.153473"><ele>13.12</ele><time>2011-09-07T09:13:05Z</time></trkpt><trkpt lat="52.003752" lon="-2.153413"><ele>12.15</ele><time>2011-09-07T09:13:15Z</time></trkpt><trkpt lat="52.003830" lon="-2.153347"><ele>12.63</ele><time>2011-09-07T09:13:24Z</time></trkpt><trkpt lat="52.003930" lon="-2.153258"><ele>12.63</ele><time>2011-09-07T09:13:35Z</time></trkpt><trkpt lat="52.004032" lon="-2.153159"><ele>13.60</ele><time>2011-09-07T09:13:46Z</time></trkpt><trkpt lat="52.004088" lon="-2.153087"><ele>13.60</ele><time>2011-09-07T09:13:54Z</time></trkpt><trkpt lat="52.004189" lon="-2.153011"><ele>13.60</ele><time>2011-09-07T09:14:05Z</time></trkpt><trkpt lat="52.004320" lon="-2.152894"><ele>13.60</ele><time>2011-09-07T09:14:19Z</time></trkpt><trkpt lat="52.004410" lon="-2.152826"><ele>15.04</ele><time>2011-09-07T09:14:29Z</time></trkpt><trkpt lat="52.004458" lon="-2.152788"><ele>15.52</ele><time>2011-09-07T09:14:34Z</time></trkpt><trkpt lat="52.004549" lon="-2.152702"><ele>15.04</ele><time>2011-09-07T09:14:45Z</time></trkpt><trkpt lat="52.004657" lon="-2.152594"><ele>13.60</ele><time>2011-09-07T09:14:59Z</time></trkpt><trkpt lat="52.004757" lon="-2.152494"><ele>14.56</ele><time>2011-09-07T09:15:12Z</time></trkpt><trkpt lat="52.004872" lon="-2.152403"><ele>14.08</ele><time>2011-09-07T09:15:26Z</time></trkpt><trkpt lat="52.004991" lon="-2.152308"><ele>14.08</ele><time>2011-09-07T09:15:40Z</time></trkpt><trkpt lat="52.005073" lon="-2.152240"><ele>13.60</ele><time>2011-09-07T09:15:50Z</time></trkpt><trkpt lat="52.005185" lon="-2.152156"><ele>13.60</ele><time>2011-09-07T09:16:04Z</time></trkpt><trkpt lat="52.005312" lon="-2.152061"><ele>13.12</ele><time>2011-09-07T09:16:19Z</time></trkpt><trkpt lat="52.005404" lon="-2.151981"><ele>12.63</ele><time>2011-09-07T09:16:31Z</time></trkpt><trkpt lat="52.005499" lon="-2.151900"><ele>12.63</ele><time>2011-09-07T09:16:44Z</time></trkpt><trkpt lat="52.005553" lon="-2.151860"><ele>12.63</ele><time>2011-09-07T09:16:51Z</time></trkpt><trkpt lat="52.005600" lon="-2.151820"><ele>13.12</ele><time>2011-09-07T09:16:58Z</time></trkpt><trkpt lat="52.005657" lon="-2.151774"><ele>13.12</ele><time>2011-09-07T09:17:05Z</time></trkpt><trkpt lat="52.005712" lon="-2.151722"><ele>13.12</ele><time>2011-09-07T09:17:12Z</time></trkpt><trkpt lat="52.005762" lon="-2.151692"><ele>13.60</ele><time>2011-09-07T09:17:18Z</time></trkpt><trkpt lat="52.005825" lon="-2.151658"><ele>13.60</ele><time>2011-09-07T09:17:26Z</time></trkpt><trkpt lat="52.005889" lon="-2.151611"><ele>13.60</ele><time>2011-09-07T09:17:34Z</time></trkpt><trkpt lat="52.005951" lon="-2.151577"><ele>14.08</ele><time>2011-09-07T09:17:41Z</time></trkpt><trkpt lat="52.006016" lon="-2.151531"><ele>13.60</ele><time>2011-09-07T09:17:49Z</time></trkpt><trkpt lat="52.006069" lon="-2.151498"><ele>13.60</ele><time>2011-09-07T09:17:56Z</time></trkpt><trkpt lat="52.006126" lon="-2.151462"><ele>13.60</ele><time>2011-09-07T09:18:03Z</time></trkpt><trkpt lat="52.006185" lon="-2.151422"><ele>13.60</ele><time>2011-09-07T09:18:10Z</time></trkpt><trkpt lat="52.006246" lon="-2.151391"><ele>14.08</ele><time>2011-09-07T09:18:17Z</time></trkpt><trkpt lat="52.006311" lon="-2.151352"><ele>14.56</ele><time>2011-09-07T09:18:25Z</time></trkpt><trkpt lat="52.006385" lon="-2.151313"><ele>14.08</ele><time>2011-09-07T09:18:33Z</time></trkpt><trkpt lat="52.006448" lon="-2.151268"><ele>14.08</ele><time>2011-09-07T09:18:41Z</time></trkpt><trkpt lat="52.006512" lon="-2.151215"><ele>14.08</ele><time>2011-09-07T09:18:49Z</time></trkpt><trkpt lat="52.006578" lon="-2.151171"><ele>14.08</ele><time>2011-09-07T09:18:57Z</time></trkpt><trkpt lat="52.006643" lon="-2.151132"><ele>14.08</ele><time>2011-09-07T09:19:04Z</time></trkpt><trkpt lat="52.006724" lon="-2.151107"><ele>14.08</ele><time>2011-09-07T09:19:13Z</time></trkpt><trkpt lat="52.006779" lon="-2.151087"><ele>14.56</ele><time>2011-09-07T09:19:21Z</time></trkpt><trkpt lat="52.006796" lon="-2.151081"><ele>14.08</ele><time>2011-09-07T09:19:29Z</time></trkpt><trkpt lat="52.006797" lon="-2.151082"><ele>14.08</ele><time>2011-09-07T09:19:42Z</time></trkpt><trkpt lat="52.006804" lon="-2.151087"><ele>13.60</ele><time>2011-09-07T09:19:53Z</time></trkpt><trkpt lat="52.006845" lon="-2.151063"><ele>12.15</ele><time>2011-09-07T09:19:58Z</time></trkpt><trkpt lat="52.006877" lon="-2.151046"><ele>12.15</ele><time>2011-09-07T09:20:01Z</time></trkpt><trkpt lat="52.006914" lon="-2.151043"><ele>11.67</ele><time>2011-09-07T09:20:05Z</time></trkpt><trkpt lat="52.007028" lon="-2.151106"><ele>11.67</ele><time>2011-09-07T09:20:17Z</time></trkpt><trkpt lat="52.007137" lon="-2.151183"><ele>10.71</ele><time>2011-09-07T09:20:28Z</time></trkpt><trkpt lat="52.007236" lon="-2.151262"><ele>10.23</ele><time>2011-09-07T09:20:40Z</time></trkpt><trkpt lat="52.007337" lon="-2.151341"><ele>9.75</ele><time>2011-09-07T09:20:52Z</time></trkpt><trkpt lat="52.007438" lon="-2.151453"><ele>9.75</ele><time>2011-09-07T09:21:06Z</time></trkpt><trkpt lat="52.007457" lon="-2.151509"><ele>9.75</ele><time>2011-09-07T09:21:10Z</time></trkpt><trkpt lat="52.007544" lon="-2.151612"><ele>10.71</ele><time>2011-09-07T09:21:22Z</time></trkpt><trkpt lat="52.007622" lon="-2.151680"><ele>10.71</ele><time>2011-09-07T09:21:31Z</time></trkpt><trkpt lat="52.007673" lon="-2.151764"><ele>11.19</ele><time>2011-09-07T09:21:43Z</time></trkpt><trkpt lat="52.007670" lon="-2.151773"><ele>11.67</ele><time>2011-09-07T09:22:00Z</time></trkpt><trkpt lat="52.007670" lon="-2.151779"><ele>12.63</ele><time>2011-09-07T09:22:10Z</time></trkpt><trkpt lat="52.007685" lon="-2.151798"><ele>12.63</ele><time>2011-09-07T09:22:24Z</time></trkpt><trkpt lat="52.007735" lon="-2.151806"><ele>12.63</ele><time>2011-09-07T09:22:32Z</time></trkpt><trkpt lat="52.007825" lon="-2.151792"><ele>12.63</ele><time>2011-09-07T09:22:42Z</time></trkpt><trkpt lat="52.007908" lon="-2.151770"><ele>13.12</ele><time>2011-09-07T09:22:52Z</time></trkpt><trkpt lat="52.007977" lon="-2.151731"><ele>13.12</ele><time>2011-09-07T09:23:00Z</time></trkpt><trkpt lat="52.008055" lon="-2.151691"><ele>13.60</ele><time>2011-09-07T09:23:09Z</time></trkpt><trkpt lat="52.008107" lon="-2.151672"><ele>13.60</ele><time>2011-09-07T09:23:15Z</time></trkpt><trkpt lat="52.008163" lon="-2.151646"><ele>13.60</ele><time>2011-09-07T09:23:22Z</time></trkpt><trkpt lat="52.008213" lon="-2.151627"><ele>14.08</ele><time>2011-09-07T09:23:29Z</time></trkpt><trkpt lat="52.008269" lon="-2.151601"><ele>14.08</ele><time>2011-09-07T09:23:36Z</time></trkpt><trkpt lat="52.008334" lon="-2.151574"><ele>14.08</ele><time>2011-09-07T09:23:44Z</time></trkpt><trkpt lat="52.008398" lon="-2.151546"><ele>14.08</ele><time>2011-09-07T09:23:52Z</time></trkpt><trkpt lat="52.008457" lon="-2.151519"><ele>13.60</ele><time>2011-09-07T09:23:59Z</time></trkpt><trkpt lat="52.008526" lon="-2.151489"><ele>13.12</ele><time>2011-09-07T09:24:07Z</time></trkpt><trkpt lat="52.008589" lon="-2.151455"><ele>13.12</ele><time>2011-09-07T09:24:14Z</time></trkpt><trkpt lat="52.008659" lon="-2.151444"><ele>13.60</ele><time>2011-09-07T09:24:22Z</time></trkpt><trkpt lat="52.008724" lon="-2.151412"><ele>13.12</ele><time>2011-09-07T09:24:30Z</time></trkpt><trkpt lat="52.008720" lon="-2.151383"><ele>11.67</ele><time>2011-09-07T09:24:39Z</time></trkpt><trkpt lat="52.008748" lon="-2.151388"><ele>11.67</ele><time>2011-09-07T09:24:44Z</time></trkpt><trkpt lat="52.008824" lon="-2.151382"><ele>11.67</ele><time>2011-09-07T09:24:52Z</time></trkpt><trkpt lat="52.008876" lon="-2.151388"><ele>12.15</ele><time>2011-09-07T09:25:00Z</time></trkpt><trkpt lat="52.008943" lon="-2.151351"><ele>13.12</ele><time>2011-09-07T09:25:08Z</time></trkpt><trkpt lat="52.009024" lon="-2.151311"><ele>13.60</ele><time>2011-09-07T09:25:17Z</time></trkpt><trkpt lat="52.009093" lon="-2.151287"><ele>14.08</ele><time>2011-09-07T09:25:25Z</time></trkpt><trkpt lat="52.009172" lon="-2.151259"><ele>14.56</ele><time>2011-09-07T09:25:34Z</time></trkpt><trkpt lat="52.009236" lon="-2.151226"><ele>15.04</ele><time>2011-09-07T09:25:42Z</time></trkpt><trkpt lat="52.009312" lon="-2.151205"><ele>15.04</ele><time>2011-09-07T09:25:52Z</time></trkpt><trkpt lat="52.009388" lon="-2.151188"><ele>14.08</ele><time>2011-09-07T09:26:00Z</time></trkpt><trkpt lat="52.009459" lon="-2.151167"><ele>14.08</ele><time>2011-09-07T09:26:08Z</time></trkpt><trkpt lat="52.009528" lon="-2.151134"><ele>14.56</ele><time>2011-09-07T09:26:16Z</time></trkpt><trkpt lat="52.009608" lon="-2.151109"><ele>14.56</ele><time>2011-09-07T09:26:25Z</time></trkpt><trkpt lat="52.009675" lon="-2.151094"><ele>15.04</ele><time>2011-09-07T09:26:33Z</time></trkpt><trkpt lat="52.009744" lon="-2.151081"><ele>15.04</ele><time>2011-09-07T09:26:41Z</time></trkpt><trkpt lat="52.009814" lon="-2.151060"><ele>15.04</ele><time>2011-09-07T09:26:49Z</time></trkpt><trkpt lat="52.009891" lon="-2.151051"><ele>15.04</ele><time>2011-09-07T09:26:58Z</time></trkpt><trkpt lat="52.009963" lon="-2.151052"><ele>15.04</ele><time>2011-09-07T09:27:06Z</time></trkpt><trkpt lat="52.010078" lon="-2.151011"><ele>14.56</ele><time>2011-09-07T09:27:19Z</time></trkpt><trkpt lat="52.010158" lon="-2.151005"><ele>14.56</ele><time>2011-09-07T09:27:28Z</time></trkpt><trkpt lat="52.010237" lon="-2.151006"><ele>14.08</ele><time>2011-09-07T09:27:37Z</time></trkpt><trkpt lat="52.010328" lon="-2.151005"><ele>14.08</ele><time>2011-09-07T09:27:46Z</time></trkpt><trkpt lat="52.010420" lon="-2.150999"><ele>13.12</ele><time>2011-09-07T09:27:56Z</time></trkpt><trkpt lat="52.010492" lon="-2.150980"><ele>13.12</ele><time>2011-09-07T09:28:05Z</time></trkpt><trkpt lat="52.010566" lon="-2.150961"><ele>13.12</ele><time>2011-09-07T09:28:13Z</time></trkpt><trkpt lat="52.010643" lon="-2.150946"><ele>13.12</ele><time>2011-09-07T09:28:21Z</time></trkpt><trkpt lat="52.010708" lon="-2.150976"><ele>13.12</ele><time>2011-09-07T09:28:29Z</time></trkpt><trkpt lat="52.010775" lon="-2.151026"><ele>13.12</ele><time>2011-09-07T09:28:37Z</time></trkpt><trkpt lat="52.010831" lon="-2.151087"><ele>13.60</ele><time>2011-09-07T09:28:45Z</time></trkpt><trkpt lat="52.010897" lon="-2.151141"><ele>14.56</ele><time>2011-09-07T09:28:53Z</time></trkpt><trkpt lat="52.010979" lon="-2.151203"><ele>14.56</ele><time>2011-09-07T09:29:03Z</time></trkpt><trkpt lat="52.011050" lon="-2.151241"><ele>14.08</ele><time>2011-09-07T09:29:12Z</time></trkpt><trkpt lat="52.011096" lon="-2.151295"><ele>14.08</ele><time>2011-09-07T09:29:19Z</time></trkpt><trkpt lat="52.011172" lon="-2.151347"><ele>15.04</ele><time>2011-09-07T09:29:28Z</time></trkpt><trkpt lat="52.011244" lon="-2.151405"><ele>14.56</ele><time>2011-09-07T09:29:37Z</time></trkpt><trkpt lat="52.011304" lon="-2.151448"><ele>15.04</ele><time>2011-09-07T09:29:45Z</time></trkpt><trkpt lat="52.011370" lon="-2.151500"><ele>15.52</ele><time>2011-09-07T09:29:53Z</time></trkpt><trkpt lat="52.011436" lon="-2.151549"><ele>16.00</ele><time>2011-09-07T09:30:01Z</time></trkpt><trkpt lat="52.011502" lon="-2.151592"><ele>16.48</ele><time>2011-09-07T09:30:09Z</time></trkpt><trkpt lat="52.011570" lon="-2.151657"><ele>17.44</ele><time>2011-09-07T09:30:18Z</time></trkpt><trkpt lat="52.011638" lon="-2.151720"><ele>16.48</ele><time>2011-09-07T09:30:26Z</time></trkpt><trkpt lat="52.011720" lon="-2.151784"><ele>17.44</ele><time>2011-09-07T09:30:36Z</time></trkpt><trkpt lat="52.011782" lon="-2.151831"><ele>17.44</ele><time>2011-09-07T09:30:44Z</time></trkpt><trkpt lat="52.011853" lon="-2.151882"><ele>17.44</ele><time>2011-09-07T09:30:53Z</time></trkpt><trkpt lat="52.011936" lon="-2.151947"><ele>17.44</ele><time>2011-09-07T09:31:04Z</time></trkpt><trkpt lat="52.012007" lon="-2.151999"><ele>17.92</ele><time>2011-09-07T09:31:13Z</time></trkpt><trkpt lat="52.012080" lon="-2.152050"><ele>17.92</ele><time>2011-09-07T09:31:22Z</time></trkpt><trkpt lat="52.012154" lon="-2.152102"><ele>18.40</ele><time>2011-09-07T09:31:31Z</time></trkpt><trkpt lat="52.012246" lon="-2.152166"><ele>17.92</ele><time>2011-09-07T09:31:42Z</time></trkpt><trkpt lat="52.012329" lon="-2.152220"><ele>17.44</ele><time>2011-09-07T09:31:51Z</time></trkpt><trkpt lat="52.012407" lon="-2.152283"><ele>16.96</ele><time>2011-09-07T09:32:00Z</time></trkpt><trkpt lat="52.012480" lon="-2.152344"><ele>17.44</ele><time>2011-09-07T09:32:10Z</time></trkpt><trkpt lat="52.012552" lon="-2.152413"><ele>17.92</ele><time>2011-09-07T09:32:20Z</time></trkpt><trkpt lat="52.012621" lon="-2.152465"><ele>18.40</ele><time>2011-09-07T09:32:29Z</time></trkpt><trkpt lat="52.012681" lon="-2.152520"><ele>18.40</ele><time>2011-09-07T09:32:37Z</time></trkpt><trkpt lat="52.012753" lon="-2.152567"><ele>18.40</ele><time>2011-09-07T09:32:45Z</time></trkpt><trkpt lat="52.012833" lon="-2.152641"><ele>18.88</ele><time>2011-09-07T09:32:55Z</time></trkpt><trkpt lat="52.012908" lon="-2.152704"><ele>18.40</ele><time>2011-09-07T09:33:05Z</time></trkpt><trkpt lat="52.012965" lon="-2.152753"><ele>18.88</ele><time>2011-09-07T09:33:13Z</time></trkpt><trkpt lat="52.013048" lon="-2.152830"><ele>18.88</ele><time>2011-09-07T09:33:23Z</time></trkpt><trkpt lat="52.013104" lon="-2.152876"><ele>18.88</ele><time>2011-09-07T09:33:31Z</time></trkpt><trkpt lat="52.013119" lon="-2.152908"><ele>18.88</ele><time>2011-09-07T09:33:37Z</time></trkpt><trkpt lat="52.013115" lon="-2.152931"><ele>18.88</ele><time>2011-09-07T09:33:48Z</time></trkpt><trkpt lat="52.013131" lon="-2.152947"><ele>17.92</ele><time>2011-09-07T09:34:16Z</time></trkpt><trkpt lat="52.013154" lon="-2.152920"><ele>17.92</ele><time>2011-09-07T09:34:36Z</time></trkpt><trkpt lat="52.013153" lon="-2.152920"><ele>17.92</ele><time>2011-09-07T09:34:45Z</time></trkpt><trkpt lat="52.013152" lon="-2.152921"><ele>17.92</ele><time>2011-09-07T09:34:56Z</time></trkpt><trkpt lat="52.013139" lon="-2.152929"><ele>19.36</ele><time>2011-09-07T09:35:11Z</time></trkpt><trkpt lat="52.013142" lon="-2.152924"><ele>19.36</ele><time>2011-09-07T09:36:00Z</time></trkpt><trkpt lat="52.013157" lon="-2.152973"><ele>19.36</ele><time>2011-09-07T09:36:10Z</time></trkpt><trkpt lat="52.013165" lon="-2.153066"><ele>18.40</ele><time>2011-09-07T09:36:20Z</time></trkpt><trkpt lat="52.013185" lon="-2.153237"><ele>18.88</ele><time>2011-09-07T09:36:33Z</time></trkpt><trkpt lat="52.013194" lon="-2.153267"><ele>18.88</ele><time>2011-09-07T09:36:43Z</time></trkpt><trkpt lat="52.013196" lon="-2.153332"><ele>19.36</ele><time>2011-09-07T09:37:05Z</time></trkpt><trkpt lat="52.013204" lon="-2.153452"><ele>18.88</ele><time>2011-09-07T09:37:14Z</time></trkpt><trkpt lat="52.013221" lon="-2.153537"><ele>19.36</ele><time>2011-09-07T09:37:21Z</time></trkpt><trkpt lat="52.013236" lon="-2.153611"><ele>20.32</ele><time>2011-09-07T09:37:27Z</time></trkpt><trkpt lat="52.013266" lon="-2.153712"><ele>20.32</ele><time>2011-09-07T09:37:35Z</time></trkpt><trkpt lat="52.013268" lon="-2.153737"><ele>20.81</ele><time>2011-09-07T09:37:37Z</time></trkpt><trkpt lat="52.013284" lon="-2.153857"><ele>21.29</ele><time>2011-09-07T09:37:46Z</time></trkpt><trkpt lat="52.013333" lon="-2.153968"><ele>22.73</ele><time>2011-09-07T09:37:55Z</time></trkpt><trkpt lat="52.013373" lon="-2.154057"><ele>24.65</ele><time>2011-09-07T09:38:03Z</time></trkpt><trkpt lat="52.013396" lon="-2.154098"><ele>25.13</ele><time>2011-09-07T09:38:11Z</time></trkpt><trkpt lat="52.013411" lon="-2.154162"><ele>25.61</ele><time>2011-09-07T09:38:19Z</time></trkpt><trkpt lat="52.013465" lon="-2.154281"><ele>26.09</ele><time>2011-09-07T09:38:27Z</time></trkpt><trkpt lat="52.013509" lon="-2.154371"><ele>25.61</ele><time>2011-09-07T09:38:34Z</time></trkpt><trkpt lat="52.013522" lon="-2.154397"><ele>25.61</ele><time>2011-09-07T09:38:36Z</time></trkpt><trkpt lat="52.013564" lon="-2.154469"><ele>25.13</ele><time>2011-09-07T09:38:43Z</time></trkpt><trkpt lat="52.013632" lon="-2.154563"><ele>25.13</ele><time>2011-09-07T09:38:53Z</time></trkpt><trkpt lat="52.013675" lon="-2.154642"><ele>27.05</ele><time>2011-09-07T09:39:01Z</time></trkpt><trkpt lat="52.013722" lon="-2.154722"><ele>28.50</ele><time>2011-09-07T09:39:09Z</time></trkpt><trkpt lat="52.013796" lon="-2.154839"><ele>29.46</ele><time>2011-09-07T09:39:21Z</time></trkpt><trkpt lat="52.013833" lon="-2.154926"><ele>30.42</ele><time>2011-09-07T09:39:30Z</time></trkpt><trkpt lat="52.013870" lon="-2.154996"><ele>31.38</ele><time>2011-09-07T09:39:38Z</time></trkpt><trkpt lat="52.013921" lon="-2.155092"><ele>32.82</ele><time>2011-09-07T09:39:48Z</time></trkpt><trkpt lat="52.013947" lon="-2.155168"><ele>32.82</ele><time>2011-09-07T09:39:55Z</time></trkpt><trkpt lat="52.013991" lon="-2.155287"><ele>32.34</ele><time>2011-09-07T09:40:05Z</time></trkpt><trkpt lat="52.014021" lon="-2.155400"><ele>33.30</ele><time>2011-09-07T09:40:13Z</time></trkpt><trkpt lat="52.014030" lon="-2.155496"><ele>34.26</ele><time>2011-09-07T09:40:20Z</time></trkpt><trkpt lat="52.014034" lon="-2.155617"><ele>35.23</ele><time>2011-09-07T09:40:28Z</time></trkpt><trkpt lat="52.014042" lon="-2.155716"><ele>35.23</ele><time>2011-09-07T09:40:35Z</time></trkpt><trkpt lat="52.014044" lon="-2.155838"><ele>35.71</ele><time>2011-09-07T09:40:43Z</time></trkpt><trkpt lat="52.014051" lon="-2.155922"><ele>36.19</ele><time>2011-09-07T09:40:49Z</time></trkpt><trkpt lat="52.014061" lon="-2.156035"><ele>35.71</ele><time>2011-09-07T09:40:57Z</time></trkpt><trkpt lat="52.014055" lon="-2.156067"><ele>35.23</ele><time>2011-09-07T09:41:00Z</time></trkpt><trkpt lat="52.014045" lon="-2.156116"><ele>35.71</ele><time>2011-09-07T09:41:07Z</time></trkpt><trkpt lat="52.014048" lon="-2.156122"><ele>35.71</ele><time>2011-09-07T09:41:08Z</time></trkpt><trkpt lat="52.014073" lon="-2.156248"><ele>35.71</ele><time>2011-09-07T09:41:16Z</time></trkpt><trkpt lat="52.014099" lon="-2.156384"><ele>35.71</ele><time>2011-09-07T09:41:25Z</time></trkpt><trkpt lat="52.014134" lon="-2.156501"><ele>33.78</ele><time>2011-09-07T09:41:33Z</time></trkpt><trkpt lat="52.014209" lon="-2.156622"><ele>33.30</ele><time>2011-09-07T09:41:43Z</time></trkpt><trkpt lat="52.014255" lon="-2.156700"><ele>33.78</ele><time>2011-09-07T09:41:50Z</time></trkpt><trkpt lat="52.014310" lon="-2.156774"><ele>33.30</ele><time>2011-09-07T09:41:57Z</time></trkpt><trkpt lat="52.014376" lon="-2.156866"><ele>33.78</ele><time>2011-09-07T09:42:07Z</time></trkpt><trkpt lat="52.014436" lon="-2.156937"><ele>34.26</ele><time>2011-09-07T09:42:15Z</time></trkpt><trkpt lat="52.014505" lon="-2.157031"><ele>35.23</ele><time>2011-09-07T09:42:25Z</time></trkpt><trkpt lat="52.014583" lon="-2.157108"><ele>35.71</ele><time>2011-09-07T09:42:35Z</time></trkpt><trkpt lat="52.014668" lon="-2.157181"><ele>35.71</ele><time>2011-09-07T09:42:45Z</time></trkpt><trkpt lat="52.014735" lon="-2.157251"><ele>36.67</ele><time>2011-09-07T09:42:54Z</time></trkpt><trkpt lat="52.014787" lon="-2.157309"><ele>37.15</ele><time>2011-09-07T09:43:02Z</time></trkpt><trkpt lat="52.014847" lon="-2.157353"><ele>37.63</ele><time>2011-09-07T09:43:10Z</time></trkpt><trkpt lat="52.014907" lon="-2.157399"><ele>37.63</ele><time>2011-09-07T09:43:18Z</time></trkpt><trkpt lat="52.014983" lon="-2.157443"><ele>36.67</ele><time>2011-09-07T09:43:27Z</time></trkpt><trkpt lat="52.015039" lon="-2.157468"><ele>35.71</ele><time>2011-09-07T09:43:33Z</time></trkpt><trkpt lat="52.015120" lon="-2.157516"><ele>36.19</ele><time>2011-09-07T09:43:43Z</time></trkpt><trkpt lat="52.015200" lon="-2.157589"><ele>36.19</ele><time>2011-09-07T09:43:54Z</time></trkpt><trkpt lat="52.015274" lon="-2.157632"><ele>35.71</ele><time>2011-09-07T09:44:02Z</time></trkpt><trkpt lat="52.015355" lon="-2.157683"><ele>35.71</ele><time>2011-09-07T09:44:11Z</time></trkpt><trkpt lat="52.015408" lon="-2.157716"><ele>35.71</ele><time>2011-09-07T09:44:20Z</time></trkpt><trkpt lat="52.015406" lon="-2.157729"><ele>35.71</ele><time>2011-09-07T09:44:31Z</time></trkpt><trkpt lat="52.015407" lon="-2.157723"><ele>35.23</ele><time>2011-09-07T09:44:43Z</time></trkpt><trkpt lat="52.015414" lon="-2.157724"><ele>34.26</ele><time>2011-09-07T09:44:53Z</time></trkpt><trkpt lat="52.015452" lon="-2.157735"><ele>34.26</ele><time>2011-09-07T09:45:01Z</time></trkpt><trkpt lat="52.015493" lon="-2.157744"><ele>34.26</ele><time>2011-09-07T09:45:10Z</time></trkpt><trkpt lat="52.015556" lon="-2.157767"><ele>34.74</ele><time>2011-09-07T09:45:17Z</time></trkpt><trkpt lat="52.015626" lon="-2.157801"><ele>35.71</ele><time>2011-09-07T09:45:25Z</time></trkpt><trkpt lat="52.015685" lon="-2.157852"><ele>36.19</ele><time>2011-09-07T09:45:32Z</time></trkpt><trkpt lat="52.015720" lon="-2.157928"><ele>37.15</ele><time>2011-09-07T09:45:40Z</time></trkpt><trkpt lat="52.015740" lon="-2.157944"><ele>36.67</ele><time>2011-09-07T09:45:47Z</time></trkpt><trkpt lat="52.015729" lon="-2.157862"><ele>37.15</ele><time>2011-09-07T09:45:54Z</time></trkpt><trkpt lat="52.015737" lon="-2.157775"><ele>37.15</ele><time>2011-09-07T09:46:02Z</time></trkpt><trkpt lat="52.015746" lon="-2.157984"><ele>37.15</ele><time>2011-09-07T09:46:14Z</time></trkpt><trkpt lat="52.015751" lon="-2.158168"><ele>37.63</ele><time>2011-09-07T09:46:25Z</time></trkpt><trkpt lat="52.015754" lon="-2.158370"><ele>35.71</ele><time>2011-09-07T09:46:37Z</time></trkpt><trkpt lat="52.015757" lon="-2.158487"><ele>35.23</ele><time>2011-09-07T09:46:44Z</time></trkpt><trkpt lat="52.015747" lon="-2.158685"><ele>35.23</ele><time>2011-09-07T09:46:55Z</time></trkpt><trkpt lat="52.015741" lon="-2.158720"><ele>35.71</ele><time>2011-09-07T09:46:59Z</time></trkpt><trkpt lat="52.015738" lon="-2.158946"><ele>36.67</ele><time>2011-09-07T09:47:11Z</time></trkpt><trkpt lat="52.015759" lon="-2.159056"><ele>35.71</ele><time>2011-09-07T09:47:19Z</time></trkpt><trkpt lat="52.015837" lon="-2.159193"><ele>34.26</ele><time>2011-09-07T09:47:30Z</time></trkpt><trkpt lat="52.015867" lon="-2.159351"><ele>33.30</ele><time>2011-09-07T09:47:39Z</time></trkpt><trkpt lat="52.015880" lon="-2.159552"><ele>30.90</ele><time>2011-09-07T09:47:50Z</time></trkpt><trkpt lat="52.015881" lon="-2.159723"><ele>29.46</ele><time>2011-09-07T09:47:59Z</time></trkpt><trkpt lat="52.015899" lon="-2.159917"><ele>27.05</ele><time>2011-09-07T09:48:09Z</time></trkpt><trkpt lat="52.015911" lon="-2.160065"><ele>28.02</ele><time>2011-09-07T09:48:17Z</time></trkpt><trkpt lat="52.015946" lon="-2.160302"><ele>28.02</ele><time>2011-09-07T09:48:29Z</time></trkpt><trkpt lat="52.015984" lon="-2.160486"><ele>28.50</ele><time>2011-09-07T09:48:40Z</time></trkpt><trkpt lat="52.016001" lon="-2.160600"><ele>28.50</ele><time>2011-09-07T09:48:47Z</time></trkpt><trkpt lat="52.016033" lon="-2.160714"><ele>28.50</ele><time>2011-09-07T09:48:54Z</time></trkpt><trkpt lat="52.016075" lon="-2.160866"><ele>28.02</ele><time>2011-09-07T09:49:03Z</time></trkpt><trkpt lat="52.016117" lon="-2.161078"><ele>27.53</ele><time>2011-09-07T09:49:15Z</time></trkpt><trkpt lat="52.016165" lon="-2.161278"><ele>26.57</ele><time>2011-09-07T09:49:27Z</time></trkpt><trkpt lat="52.016195" lon="-2.161434"><ele>26.09</ele><time>2011-09-07T09:49:36Z</time></trkpt><trkpt lat="52.016242" lon="-2.161634"><ele>25.13</ele><time>2011-09-07T09:49:47Z</time></trkpt><trkpt lat="52.016281" lon="-2.161847"><ele>24.65</ele><time>2011-09-07T09:49:59Z</time></trkpt><trkpt lat="52.016318" lon="-2.162041"><ele>25.13</ele><time>2011-09-07T09:50:11Z</time></trkpt><trkpt lat="52.016333" lon="-2.162176"><ele>25.13</ele><time>2011-09-07T09:50:19Z</time></trkpt><trkpt lat="52.016346" lon="-2.162331"><ele>26.57</ele><time>2011-09-07T09:50:28Z</time></trkpt><trkpt lat="52.016327" lon="-2.162471"><ele>26.57</ele><time>2011-09-07T09:50:37Z</time></trkpt><trkpt lat="52.016285" lon="-2.162611"><ele>27.05</ele><time>2011-09-07T09:50:46Z</time></trkpt><trkpt lat="52.016247" lon="-2.162700"><ele>28.50</ele><time>2011-09-07T09:50:53Z</time></trkpt><trkpt lat="52.016205" lon="-2.162825"><ele>30.42</ele><time>2011-09-07T09:51:01Z</time></trkpt><trkpt lat="52.016170" lon="-2.162984"><ele>31.38</ele><time>2011-09-07T09:51:10Z</time></trkpt><trkpt lat="52.016133" lon="-2.163091"><ele>31.86</ele><time>2011-09-07T09:51:18Z</time></trkpt><trkpt lat="52.016072" lon="-2.163212"><ele>33.78</ele><time>2011-09-07T09:51:27Z</time></trkpt><trkpt lat="52.016015" lon="-2.163311"><ele>33.30</ele><time>2011-09-07T09:51:35Z</time></trkpt><trkpt lat="52.015965" lon="-2.163399"><ele>32.82</ele><time>2011-09-07T09:51:43Z</time></trkpt><trkpt lat="52.015917" lon="-2.163493"><ele>32.34</ele><time>2011-09-07T09:51:51Z</time></trkpt><trkpt lat="52.015880" lon="-2.163576"><ele>32.34</ele><time>2011-09-07T09:51:58Z</time></trkpt><trkpt lat="52.015848" lon="-2.163635"><ele>32.82</ele><time>2011-09-07T09:52:05Z</time></trkpt><trkpt lat="52.015857" lon="-2.163634"><ele>31.38</ele><time>2011-09-07T09:52:16Z</time></trkpt><trkpt lat="52.015865" lon="-2.163641"><ele>31.38</ele><time>2011-09-07T09:52:28Z</time></trkpt><trkpt lat="52.015840" lon="-2.163719"><ele>30.90</ele><time>2011-09-07T09:52:37Z</time></trkpt><trkpt lat="52.015809" lon="-2.163790"><ele>30.90</ele><time>2011-09-07T09:52:43Z</time></trkpt><trkpt lat="52.015761" lon="-2.163879"><ele>30.42</ele><time>2011-09-07T09:52:51Z</time></trkpt><trkpt lat="52.015715" lon="-2.163969"><ele>30.90</ele><time>2011-09-07T09:52:58Z</time></trkpt><trkpt lat="52.015669" lon="-2.164077"><ele>30.90</ele><time>2011-09-07T09:53:06Z</time></trkpt><trkpt lat="52.015639" lon="-2.164157"><ele>30.90</ele><time>2011-09-07T09:53:12Z</time></trkpt><trkpt lat="52.015614" lon="-2.164217"><ele>30.90</ele><time>2011-09-07T09:53:18Z</time></trkpt><trkpt lat="52.015616" lon="-2.164223"><ele>30.42</ele><time>2011-09-07T09:53:33Z</time></trkpt><trkpt lat="52.015592" lon="-2.164244"><ele>30.90</ele><time>2011-09-07T09:53:45Z</time></trkpt><trkpt lat="52.015587" lon="-2.164245"><ele>29.94</ele><time>2011-09-07T09:53:57Z</time></trkpt><trkpt lat="52.015586" lon="-2.164268"><ele>28.98</ele><time>2011-09-07T09:54:06Z</time></trkpt><trkpt lat="52.015588" lon="-2.164299"><ele>28.98</ele><time>2011-09-07T09:54:16Z</time></trkpt><trkpt lat="52.015600" lon="-2.164378"><ele>29.46</ele><time>2011-09-07T09:54:24Z</time></trkpt><trkpt lat="52.015605" lon="-2.164369"><ele>28.02</ele><time>2011-09-07T09:54:37Z</time></trkpt><trkpt lat="52.015603" lon="-2.164369"><ele>27.05</ele><time>2011-09-07T09:55:01Z</time></trkpt><trkpt lat="52.015608" lon="-2.164352"><ele>26.57</ele><time>2011-09-07T09:55:30Z</time></trkpt><trkpt lat="52.015612" lon="-2.164350"><ele>26.57</ele><time>2011-09-07T09:55:53Z</time></trkpt><trkpt lat="52.015612" lon="-2.164366"><ele>26.09</ele><time>2011-09-07T09:57:22Z</time></trkpt><trkpt lat="52.015617" lon="-2.164357"><ele>26.57</ele><time>2011-09-07T09:57:44Z</time></trkpt><trkpt lat="52.015603" lon="-2.164330"><ele>27.53</ele><time>2011-09-07T09:57:55Z</time></trkpt><trkpt lat="52.015603" lon="-2.164306"><ele>26.57</ele><time>2011-09-07T09:58:07Z</time></trkpt><trkpt lat="52.015596" lon="-2.164326"><ele>24.65</ele><time>2011-09-07T09:58:13Z</time></trkpt><trkpt lat="52.015600" lon="-2.164335"><ele>23.21</ele><time>2011-09-07T09:58:28Z</time></trkpt><trkpt lat="52.015601" lon="-2.164341"><ele>23.21</ele><time>2011-09-07T09:58:49Z</time></trkpt><trkpt lat="52.015599" lon="-2.164357"><ele>21.77</ele><time>2011-09-07T09:59:16Z</time></trkpt><trkpt lat="52.015599" lon="-2.164352"><ele>23.21</ele><time>2011-09-07T09:59:45Z</time></trkpt><trkpt lat="52.015597" lon="-2.164355"><ele>23.21</ele><time>2011-09-07T10:00:15Z</time></trkpt><trkpt lat="52.015597" lon="-2.164363"><ele>23.69</ele><time>2011-09-07T10:01:22Z</time></trkpt><trkpt lat="52.015596" lon="-2.164373"><ele>24.65</ele><time>2011-09-07T10:03:04Z</time></trkpt><trkpt lat="52.015589" lon="-2.164371"><ele>22.73</ele><time>2011-09-07T10:04:46Z</time></trkpt><trkpt lat="52.015592" lon="-2.164379"><ele>22.73</ele><time>2011-09-07T10:06:17Z</time></trkpt><trkpt lat="52.015590" lon="-2.164384"><ele>22.73</ele><time>2011-09-07T10:07:35Z</time></trkpt><trkpt lat="52.015593" lon="-2.164380"><ele>21.77</ele><time>2011-09-07T10:07:46Z</time></trkpt><trkpt lat="52.015602" lon="-2.164358"><ele>22.73</ele><time>2011-09-07T10:08:31Z</time></trkpt><trkpt lat="52.015604" lon="-2.164359"><ele>23.69</ele><time>2011-09-07T10:08:44Z</time></trkpt><trkpt lat="52.015580" lon="-2.164385"><ele>25.13</ele><time>2011-09-07T10:09:12Z</time></trkpt><trkpt lat="52.015533" lon="-2.164473"><ele>26.57</ele><time>2011-09-07T10:09:21Z</time></trkpt><trkpt lat="52.015484" lon="-2.164555"><ele>25.61</ele><time>2011-09-07T10:09:29Z</time></trkpt><trkpt lat="52.015423" lon="-2.164652"><ele>25.61</ele><time>2011-09-07T10:09:39Z</time></trkpt><trkpt lat="52.015390" lon="-2.164722"><ele>27.53</ele><time>2011-09-07T10:09:45Z</time></trkpt><trkpt lat="52.015352" lon="-2.164831"><ele>30.42</ele><time>2011-09-07T10:09:53Z</time></trkpt><trkpt lat="52.015344" lon="-2.164906"><ele>31.38</ele><time>2011-09-07T10:09:58Z</time></trkpt><trkpt lat="52.015390" lon="-2.165008"><ele>31.86</ele><time>2011-09-07T10:10:06Z</time></trkpt><trkpt lat="52.015436" lon="-2.165099"><ele>31.86</ele><time>2011-09-07T10:10:13Z</time></trkpt><trkpt lat="52.015492" lon="-2.165195"><ele>32.34</ele><time>2011-09-07T10:10:21Z</time></trkpt><trkpt lat="52.015541" lon="-2.165275"><ele>32.34</ele><time>2011-09-07T10:10:28Z</time></trkpt><trkpt lat="52.015619" lon="-2.165371"><ele>31.86</ele><time>2011-09-07T10:10:37Z</time></trkpt><trkpt lat="52.015704" lon="-2.165480"><ele>32.34</ele><time>2011-09-07T10:10:48Z</time></trkpt><trkpt lat="52.015759" lon="-2.165532"><ele>31.86</ele><time>2011-09-07T10:10:54Z</time></trkpt><trkpt lat="52.015831" lon="-2.165614"><ele>31.38</ele><time>2011-09-07T10:11:03Z</time></trkpt><trkpt lat="52.015901" lon="-2.165643"><ele>31.38</ele><time>2011-09-07T10:11:10Z</time></trkpt><trkpt lat="52.015990" lon="-2.165725"><ele>30.90</ele><time>2011-09-07T10:11:19Z</time></trkpt><trkpt lat="52.016082" lon="-2.165771"><ele>31.86</ele><time>2011-09-07T10:11:28Z</time></trkpt><trkpt lat="52.016159" lon="-2.165792"><ele>32.34</ele><time>2011-09-07T10:11:35Z</time></trkpt><trkpt lat="52.016230" lon="-2.165793"><ele>34.26</ele><time>2011-09-07T10:11:42Z</time></trkpt><trkpt lat="52.016239" lon="-2.165806"><ele>35.23</ele><time>2011-09-07T10:11:57Z</time></trkpt><trkpt lat="52.016238" lon="-2.165810"><ele>35.23</ele><time>2011-09-07T10:12:08Z</time></trkpt><trkpt lat="52.016227" lon="-2.165909"><ele>38.11</ele><time>2011-09-07T10:12:14Z</time></trkpt><trkpt lat="52.016239" lon="-2.165918"><ele>38.11</ele><time>2011-09-07T10:12:25Z</time></trkpt><trkpt lat="52.016285" lon="-2.165952"><ele>38.59</ele><time>2011-09-07T10:12:34Z</time></trkpt><trkpt lat="52.016309" lon="-2.165999"><ele>38.59</ele><time>2011-09-07T10:12:44Z</time></trkpt><trkpt lat="52.016278" lon="-2.166037"><ele>37.15</ele><time>2011-09-07T10:12:50Z</time></trkpt><trkpt lat="52.016223" lon="-2.166087"><ele>38.11</ele><time>2011-09-07T10:12:58Z</time></trkpt><trkpt lat="52.016175" lon="-2.166141"><ele>39.07</ele><time>2011-09-07T10:13:05Z</time></trkpt><trkpt lat="52.016147" lon="-2.166267"><ele>38.59</ele><time>2011-09-07T10:13:13Z</time></trkpt><trkpt lat="52.016118" lon="-2.166364"><ele>38.11</ele><time>2011-09-07T10:13:20Z</time></trkpt><trkpt lat="52.016062" lon="-2.166489"><ele>38.11</ele><time>2011-09-07T10:13:29Z</time></trkpt><trkpt lat="52.015999" lon="-2.166578"><ele>38.11</ele><time>2011-09-07T10:13:37Z</time></trkpt><trkpt lat="52.015938" lon="-2.166694"><ele>37.63</ele><time>2011-09-07T10:13:47Z</time></trkpt><trkpt lat="52.015899" lon="-2.166790"><ele>36.67</ele><time>2011-09-07T10:13:56Z</time></trkpt><trkpt lat="52.015853" lon="-2.166849"><ele>36.19</ele><time>2011-09-07T10:14:03Z</time></trkpt><trkpt lat="52.015793" lon="-2.166939"><ele>34.26</ele><time>2011-09-07T10:14:11Z</time></trkpt><trkpt lat="52.015717" lon="-2.167023"><ele>33.78</ele><time>2011-09-07T10:14:20Z</time></trkpt><trkpt lat="52.015635" lon="-2.167103"><ele>33.30</ele><time>2011-09-07T10:14:29Z</time></trkpt><trkpt lat="52.015547" lon="-2.167190"><ele>33.78</ele><time>2011-09-07T10:14:38Z</time></trkpt><trkpt lat="52.015458" lon="-2.167272"><ele>33.30</ele><time>2011-09-07T10:14:47Z</time></trkpt><trkpt lat="52.015387" lon="-2.167323"><ele>32.82</ele><time>2011-09-07T10:14:54Z</time></trkpt><trkpt lat="52.015314" lon="-2.167376"><ele>32.34</ele><time>2011-09-07T10:15:02Z</time></trkpt><trkpt lat="52.015268" lon="-2.167435"><ele>32.34</ele><time>2011-09-07T10:15:10Z</time></trkpt><trkpt lat="52.015175" lon="-2.167511"><ele>31.86</ele><time>2011-09-07T10:15:19Z</time></trkpt><trkpt lat="52.015087" lon="-2.167573"><ele>31.86</ele><time>2011-09-07T10:15:28Z</time></trkpt><trkpt lat="52.015060" lon="-2.167601"><ele>31.86</ele><time>2011-09-07T10:15:36Z</time></trkpt><trkpt lat="52.014993" lon="-2.167655"><ele>30.90</ele><time>2011-09-07T10:15:45Z</time></trkpt><trkpt lat="52.014972" lon="-2.167692"><ele>30.42</ele><time>2011-09-07T10:15:52Z</time></trkpt><trkpt lat="52.014912" lon="-2.167765"><ele>30.90</ele><time>2011-09-07T10:16:01Z</time></trkpt><trkpt lat="52.014884" lon="-2.167803"><ele>30.90</ele><time>2011-09-07T10:16:07Z</time></trkpt><trkpt lat="52.014808" lon="-2.167871"><ele>30.42</ele><time>2011-09-07T10:16:15Z</time></trkpt><trkpt lat="52.014719" lon="-2.167920"><ele>30.42</ele><time>2011-09-07T10:16:24Z</time></trkpt><trkpt lat="52.014678" lon="-2.167944"><ele>30.90</ele><time>2011-09-07T10:16:32Z</time></trkpt><trkpt lat="52.014668" lon="-2.167938"><ele>29.94</ele><time>2011-09-07T10:16:46Z</time></trkpt><trkpt lat="52.014660" lon="-2.167933"><ele>29.94</ele><time>2011-09-07T10:17:05Z</time></trkpt><trkpt lat="52.014664" lon="-2.167941"><ele>28.98</ele><time>2011-09-07T10:17:20Z</time></trkpt><trkpt lat="52.014653" lon="-2.167922"><ele>30.90</ele><time>2011-09-07T10:17:43Z</time></trkpt><trkpt lat="52.014647" lon="-2.167920"><ele>30.90</ele><time>2011-09-07T10:17:45Z</time></trkpt><trkpt lat="52.014620" lon="-2.167955"><ele>30.90</ele><time>2011-09-07T10:17:49Z</time></trkpt><trkpt lat="52.014528" lon="-2.168046"><ele>31.38</ele><time>2011-09-07T10:17:58Z</time></trkpt><trkpt lat="52.014451" lon="-2.168113"><ele>30.42</ele><time>2011-09-07T10:18:06Z</time></trkpt><trkpt lat="52.014383" lon="-2.168177"><ele>30.42</ele><time>2011-09-07T10:18:13Z</time></trkpt><trkpt lat="52.014311" lon="-2.168240"><ele>30.42</ele><time>2011-09-07T10:18:21Z</time></trkpt><trkpt lat="52.014234" lon="-2.168333"><ele>30.42</ele><time>2011-09-07T10:18:30Z</time></trkpt><trkpt lat="52.014137" lon="-2.168427"><ele>30.42</ele><time>2011-09-07T10:18:41Z</time></trkpt><trkpt lat="52.014071" lon="-2.168501"><ele>30.90</ele><time>2011-09-07T10:18:49Z</time></trkpt><trkpt lat="52.013970" lon="-2.168637"><ele>31.38</ele><time>2011-09-07T10:19:01Z</time></trkpt><trkpt lat="52.013896" lon="-2.168744"><ele>30.90</ele><time>2011-09-07T10:19:10Z</time></trkpt><trkpt lat="52.013827" lon="-2.168869"><ele>30.42</ele><time>2011-09-07T10:19:20Z</time></trkpt><trkpt lat="52.013822" lon="-2.168881"><ele>30.90</ele><time>2011-09-07T10:19:25Z</time></trkpt><trkpt lat="52.013780" lon="-2.168959"><ele>30.90</ele><time>2011-09-07T10:19:33Z</time></trkpt><trkpt lat="52.013701" lon="-2.169102"><ele>31.38</ele><time>2011-09-07T10:19:43Z</time></trkpt><trkpt lat="52.013618" lon="-2.169275"><ele>30.90</ele><time>2011-09-07T10:19:55Z</time></trkpt><trkpt lat="52.013558" lon="-2.169385"><ele>31.38</ele><time>2011-09-07T10:20:04Z</time></trkpt><trkpt lat="52.013521" lon="-2.169430"><ele>31.38</ele><time>2011-09-07T10:20:11Z</time></trkpt><trkpt lat="52.013441" lon="-2.169546"><ele>31.38</ele><time>2011-09-07T10:20:22Z</time></trkpt><trkpt lat="52.013371" lon="-2.169673"><ele>31.86</ele><time>2011-09-07T10:20:32Z</time></trkpt><trkpt lat="52.013309" lon="-2.169773"><ele>31.38</ele><time>2011-09-07T10:20:41Z</time></trkpt><trkpt lat="52.013225" lon="-2.169887"><ele>30.90</ele><time>2011-09-07T10:20:52Z</time></trkpt><trkpt lat="52.013159" lon="-2.170008"><ele>29.46</ele><time>2011-09-07T10:21:02Z</time></trkpt><trkpt lat="52.013118" lon="-2.170125"><ele>28.50</ele><time>2011-09-07T10:21:12Z</time></trkpt><trkpt lat="52.013105" lon="-2.170227"><ele>27.05</ele><time>2011-09-07T10:21:20Z</time></trkpt><trkpt lat="52.013091" lon="-2.170396"><ele>24.17</ele><time>2011-09-07T10:21:32Z</time></trkpt><trkpt lat="52.013066" lon="-2.170516"><ele>23.21</ele><time>2011-09-07T10:21:43Z</time></trkpt><trkpt lat="52.013047" lon="-2.170622"><ele>22.25</ele><time>2011-09-07T10:21:52Z</time></trkpt><trkpt lat="52.013041" lon="-2.170632"><ele>22.25</ele><time>2011-09-07T10:21:53Z</time></trkpt><trkpt lat="52.013000" lon="-2.170726"><ele>22.73</ele><time>2011-09-07T10:22:01Z</time></trkpt><trkpt lat="52.012983" lon="-2.170755"><ele>22.73</ele><time>2011-09-07T10:22:08Z</time></trkpt><trkpt lat="52.012984" lon="-2.170740"><ele>22.73</ele><time>2011-09-07T10:22:20Z</time></trkpt><trkpt lat="52.012977" lon="-2.170714"><ele>23.69</ele><time>2011-09-07T10:22:29Z</time></trkpt><trkpt lat="52.012951" lon="-2.170762"><ele>23.21</ele><time>2011-09-07T10:22:35Z</time></trkpt><trkpt lat="52.012918" lon="-2.170826"><ele>22.73</ele><time>2011-09-07T10:22:47Z</time></trkpt><trkpt lat="52.012895" lon="-2.170885"><ele>22.25</ele><time>2011-09-07T10:22:55Z</time></trkpt><trkpt lat="52.012858" lon="-2.170972"><ele>22.25</ele><time>2011-09-07T10:23:02Z</time></trkpt><trkpt lat="52.012806" lon="-2.171069"><ele>22.73</ele><time>2011-09-07T10:23:10Z</time></trkpt><trkpt lat="52.012755" lon="-2.171163"><ele>19.84</ele><time>2011-09-07T10:23:18Z</time></trkpt><trkpt lat="52.012716" lon="-2.171277"><ele>16.96</ele><time>2011-09-07T10:23:26Z</time></trkpt><trkpt lat="52.012666" lon="-2.171403"><ele>15.52</ele><time>2011-09-07T10:23:36Z</time></trkpt><trkpt lat="52.012664" lon="-2.171418"><ele>15.52</ele><time>2011-09-07T10:23:44Z</time></trkpt><trkpt lat="52.012673" lon="-2.171425"><ele>15.52</ele><time>2011-09-07T10:23:54Z</time></trkpt><trkpt lat="52.012672" lon="-2.171422"><ele>15.04</ele><time>2011-09-07T10:24:11Z</time></trkpt><trkpt lat="52.012659" lon="-2.171410"><ele>14.56</ele><time>2011-09-07T10:24:25Z</time></trkpt><trkpt lat="52.012620" lon="-2.171439"><ele>13.12</ele><time>2011-09-07T10:24:33Z</time></trkpt><trkpt lat="52.012619" lon="-2.171468"><ele>12.63</ele><time>2011-09-07T10:24:40Z</time></trkpt><trkpt lat="52.012625" lon="-2.171489"><ele>11.19</ele><time>2011-09-07T10:24:46Z</time></trkpt><trkpt lat="52.012654" lon="-2.171502"><ele>9.75</ele><time>2011-09-07T10:24:53Z</time></trkpt><trkpt lat="52.012632" lon="-2.171521"><ele>9.27</ele><time>2011-09-07T10:25:08Z</time></trkpt><trkpt lat="52.012576" lon="-2.171581"><ele>7.83</ele><time>2011-09-07T10:25:14Z</time></trkpt><trkpt lat="52.012509" lon="-2.171742"><ele>7.35</ele><time>2011-09-07T10:25:24Z</time></trkpt><trkpt lat="52.012437" lon="-2.171973"><ele>7.83</ele><time>2011-09-07T10:25:37Z</time></trkpt><trkpt lat="52.012383" lon="-2.172131"><ele>8.31</ele><time>2011-09-07T10:25:46Z</time></trkpt><trkpt lat="52.012322" lon="-2.172294"><ele>8.79</ele><time>2011-09-07T10:25:56Z</time></trkpt><trkpt lat="52.012253" lon="-2.172427"><ele>9.75</ele><time>2011-09-07T10:26:06Z</time></trkpt><trkpt lat="52.012130" lon="-2.172547"><ele>9.75</ele><time>2011-09-07T10:26:18Z</time></trkpt><trkpt lat="52.012060" lon="-2.172676"><ele>9.75</ele><time>2011-09-07T10:26:27Z</time></trkpt><trkpt lat="52.012026" lon="-2.172753"><ele>10.23</ele><time>2011-09-07T10:26:32Z</time></trkpt><trkpt lat="52.011983" lon="-2.172858"><ele>10.71</ele><time>2011-09-07T10:26:39Z</time></trkpt><trkpt lat="52.011939" lon="-2.172910"><ele>10.23</ele><time>2011-09-07T10:26:47Z</time></trkpt><trkpt lat="52.011921" lon="-2.172983"><ele>11.19</ele><time>2011-09-07T10:26:54Z</time></trkpt><trkpt lat="52.011909" lon="-2.173003"><ele>11.19</ele><time>2011-09-07T10:26:57Z</time></trkpt><trkpt lat="52.011893" lon="-2.173089"><ele>11.67</ele><time>2011-09-07T10:27:05Z</time></trkpt><trkpt lat="52.011894" lon="-2.173228"><ele>11.67</ele><time>2011-09-07T10:27:13Z</time></trkpt><trkpt lat="52.011894" lon="-2.173377"><ele>11.67</ele><time>2011-09-07T10:27:22Z</time></trkpt><trkpt lat="52.011899" lon="-2.173513"><ele>11.67</ele><time>2011-09-07T10:27:31Z</time></trkpt><trkpt lat="52.011898" lon="-2.173654"><ele>12.15</ele><time>2011-09-07T10:27:40Z</time></trkpt><trkpt lat="52.011901" lon="-2.173799"><ele>12.15</ele><time>2011-09-07T10:27:50Z</time></trkpt><trkpt lat="52.011905" lon="-2.173929"><ele>12.15</ele><time>2011-09-07T10:27:58Z</time></trkpt><trkpt lat="52.011915" lon="-2.174089"><ele>12.15</ele><time>2011-09-07T10:28:08Z</time></trkpt><trkpt lat="52.011920" lon="-2.174203"><ele>12.15</ele><time>2011-09-07T10:28:16Z</time></trkpt><trkpt lat="52.011929" lon="-2.174298"><ele>11.67</ele><time>2011-09-07T10:28:23Z</time></trkpt><trkpt lat="52.011939" lon="-2.174331"><ele>11.19</ele><time>2011-09-07T10:28:32Z</time></trkpt><trkpt lat="52.011943" lon="-2.174423"><ele>10.71</ele><time>2011-09-07T10:28:41Z</time></trkpt><trkpt lat="52.011952" lon="-2.174611"><ele>10.71</ele><time>2011-09-07T10:28:51Z</time></trkpt><trkpt lat="52.011953" lon="-2.174805"><ele>10.71</ele><time>2011-09-07T10:29:02Z</time></trkpt><trkpt lat="52.011969" lon="-2.174817"><ele>10.71</ele><time>2011-09-07T10:29:10Z</time></trkpt><trkpt lat="52.011974" lon="-2.174872"><ele>9.75</ele><time>2011-09-07T10:29:35Z</time></trkpt><trkpt lat="52.011995" lon="-2.175227"><ele>9.75</ele><time>2011-09-07T10:29:50Z</time></trkpt><trkpt lat="52.012020" lon="-2.175568"><ele>9.75</ele><time>2011-09-07T10:30:04Z</time></trkpt><trkpt lat="52.012034" lon="-2.175994"><ele>10.71</ele><time>2011-09-07T10:30:23Z</time></trkpt><trkpt lat="52.012047" lon="-2.176305"><ele>11.19</ele><time>2011-09-07T10:30:37Z</time></trkpt><trkpt lat="52.012093" lon="-2.176475"><ele>10.71</ele><time>2011-09-07T10:30:48Z</time></trkpt><trkpt lat="52.012114" lon="-2.176595"><ele>11.19</ele><time>2011-09-07T10:30:57Z</time></trkpt><trkpt lat="52.012143" lon="-2.176761"><ele>11.67</ele><time>2011-09-07T10:31:09Z</time></trkpt><trkpt lat="52.012159" lon="-2.176924"><ele>11.19</ele><time>2011-09-07T10:31:20Z</time></trkpt><trkpt lat="52.012160" lon="-2.177061"><ele>12.15</ele><time>2011-09-07T10:31:30Z</time></trkpt><trkpt lat="52.012163" lon="-2.177094"><ele>11.67</ele><time>2011-09-07T10:31:38Z</time></trkpt><trkpt lat="52.012155" lon="-2.177161"><ele>12.15</ele><time>2011-09-07T10:31:47Z</time></trkpt><trkpt lat="52.012149" lon="-2.177296"><ele>12.15</ele><time>2011-09-07T10:31:56Z</time></trkpt><trkpt lat="52.012158" lon="-2.177373"><ele>12.15</ele><time>2011-09-07T10:32:06Z</time></trkpt><trkpt lat="52.012144" lon="-2.177462"><ele>11.67</ele><time>2011-09-07T10:32:16Z</time></trkpt><trkpt lat="52.012120" lon="-2.177533"><ele>10.71</ele><time>2011-09-07T10:32:25Z</time></trkpt><trkpt lat="52.012099" lon="-2.177608"><ele>10.71</ele><time>2011-09-07T10:32:32Z</time></trkpt><trkpt lat="52.012087" lon="-2.177669"><ele>10.71</ele><time>2011-09-07T10:32:39Z</time></trkpt><trkpt lat="52.012075" lon="-2.177678"><ele>10.71</ele><time>2011-09-07T10:32:42Z</time></trkpt><trkpt lat="52.012019" lon="-2.177681"><ele>10.23</ele><time>2011-09-07T10:32:51Z</time></trkpt><trkpt lat="52.012023" lon="-2.177676"><ele>10.23</ele><time>2011-09-07T10:32:55Z</time></trkpt><trkpt lat="52.012041" lon="-2.177730"><ele>10.23</ele><time>2011-09-07T10:33:00Z</time></trkpt><trkpt lat="52.012040" lon="-2.177895"><ele>9.75</ele><time>2011-09-07T10:33:10Z</time></trkpt><trkpt lat="52.012009" lon="-2.177994"><ele>10.71</ele><time>2011-09-07T10:33:18Z</time></trkpt><trkpt lat="52.011975" lon="-2.178148"><ele>11.19</ele><time>2011-09-07T10:33:28Z</time></trkpt><trkpt lat="52.011936" lon="-2.178251"><ele>12.63</ele><time>2011-09-07T10:33:36Z</time></trkpt><trkpt lat="52.011892" lon="-2.178342"><ele>12.63</ele><time>2011-09-07T10:33:44Z</time></trkpt><trkpt lat="52.011832" lon="-2.178418"><ele>14.08</ele><time>2011-09-07T10:33:52Z</time></trkpt><trkpt lat="52.011807" lon="-2.178427"><ele>14.56</ele><time>2011-09-07T10:33:59Z</time></trkpt><trkpt lat="52.011803" lon="-2.178440"><ele>14.56</ele><time>2011-09-07T10:34:03Z</time></trkpt><trkpt lat="52.011813" lon="-2.178485"><ele>14.08</ele><time>2011-09-07T10:34:06Z</time></trkpt><trkpt lat="52.011815" lon="-2.178564"><ele>12.63</ele><time>2011-09-07T10:34:10Z</time></trkpt><trkpt lat="52.011775" lon="-2.178607"><ele>12.15</ele><time>2011-09-07T10:34:19Z</time></trkpt><trkpt lat="52.011778" lon="-2.178600"><ele>12.15</ele><time>2011-09-07T10:34:39Z</time></trkpt><trkpt lat="52.011777" lon="-2.178596"><ele>12.15</ele><time>2011-09-07T10:35:24Z</time></trkpt><trkpt lat="52.011815" lon="-2.178509"><ele>13.12</ele><time>2011-09-07T10:35:31Z</time></trkpt><trkpt lat="52.011811" lon="-2.178442"><ele>12.15</ele><time>2011-09-07T10:35:37Z</time></trkpt><trkpt lat="52.011798" lon="-2.178437"><ele>10.23</ele><time>2011-09-07T10:35:44Z</time></trkpt><trkpt lat="52.011796" lon="-2.178439"><ele>10.23</ele><time>2011-09-07T10:35:45Z</time></trkpt><trkpt lat="52.011770" lon="-2.178427"><ele>9.75</ele><time>2011-09-07T10:35:49Z</time></trkpt><trkpt lat="52.011676" lon="-2.178248"><ele>8.79</ele><time>2011-09-07T10:36:01Z</time></trkpt><trkpt lat="52.011608" lon="-2.178160"><ele>8.79</ele><time>2011-09-07T10:36:09Z</time></trkpt><trkpt lat="52.011530" lon="-2.178009"><ele>6.87</ele><time>2011-09-07T10:36:20Z</time></trkpt><trkpt lat="52.011482" lon="-2.177949"><ele>6.39</ele><time>2011-09-07T10:36:27Z</time></trkpt><trkpt lat="52.011461" lon="-2.177875"><ele>7.83</ele><time>2011-09-07T10:37:02Z</time></trkpt><trkpt lat="52.011370" lon="-2.177730"><ele>8.31</ele><time>2011-09-07T10:37:11Z</time></trkpt><trkpt lat="52.011296" lon="-2.177611"><ele>7.35</ele><time>2011-09-07T10:37:21Z</time></trkpt><trkpt lat="52.011232" lon="-2.177482"><ele>6.39</ele><time>2011-09-07T10:37:29Z</time></trkpt><trkpt lat="52.011224" lon="-2.177466"><ele>6.39</ele><time>2011-09-07T10:37:30Z</time></trkpt><trkpt lat="52.011152" lon="-2.177304"><ele>8.31</ele><time>2011-09-07T10:37:40Z</time></trkpt><trkpt lat="52.011089" lon="-2.177193"><ele>8.31</ele><time>2011-09-07T10:37:48Z</time></trkpt><trkpt lat="52.010991" lon="-2.177015"><ele>7.83</ele><time>2011-09-07T10:37:59Z</time></trkpt><trkpt lat="52.010932" lon="-2.176888"><ele>8.31</ele><time>2011-09-07T10:38:07Z</time></trkpt><trkpt lat="52.010879" lon="-2.176778"><ele>10.23</ele><time>2011-09-07T10:38:15Z</time></trkpt><trkpt lat="52.010809" lon="-2.176594"><ele>10.23</ele><time>2011-09-07T10:38:24Z</time></trkpt><trkpt lat="52.010748" lon="-2.176433"><ele>10.23</ele><time>2011-09-07T10:38:33Z</time></trkpt><trkpt lat="52.010672" lon="-2.176275"><ele>10.23</ele><time>2011-09-07T10:38:43Z</time></trkpt><trkpt lat="52.010611" lon="-2.176137"><ele>12.15</ele><time>2011-09-07T10:38:52Z</time></trkpt><trkpt lat="52.010561" lon="-2.176002"><ele>13.12</ele><time>2011-09-07T10:39:00Z</time></trkpt><trkpt lat="52.010556" lon="-2.175988"><ele>13.12</ele><time>2011-09-07T10:39:01Z</time></trkpt><trkpt lat="52.010507" lon="-2.175832"><ele>13.60</ele><time>2011-09-07T10:39:09Z</time></trkpt><trkpt lat="52.010439" lon="-2.175684"><ele>14.56</ele><time>2011-09-07T10:39:17Z</time></trkpt><trkpt lat="52.010357" lon="-2.175529"><ele>14.08</ele><time>2011-09-07T10:39:26Z</time></trkpt><trkpt lat="52.010288" lon="-2.175350"><ele>12.15</ele><time>2011-09-07T10:39:35Z</time></trkpt><trkpt lat="52.010214" lon="-2.175114"><ele>11.67</ele><time>2011-09-07T10:39:47Z</time></trkpt><trkpt lat="52.010133" lon="-2.174862"><ele>12.63</ele><time>2011-09-07T10:40:00Z</time></trkpt><trkpt lat="52.010080" lon="-2.174736"><ele>10.71</ele><time>2011-09-07T10:40:08Z</time></trkpt><trkpt lat="52.010033" lon="-2.174579"><ele>10.23</ele><time>2011-09-07T10:40:17Z</time></trkpt><trkpt lat="52.009993" lon="-2.174437"><ele>10.71</ele><time>2011-09-07T10:40:24Z</time></trkpt><trkpt lat="52.009910" lon="-2.174168"><ele>10.71</ele><time>2011-09-07T10:40:38Z</time></trkpt><trkpt lat="52.009854" lon="-2.173997"><ele>10.23</ele><time>2011-09-07T10:40:48Z</time></trkpt><trkpt lat="52.009808" lon="-2.173882"><ele>7.83</ele><time>2011-09-07T10:40:55Z</time></trkpt><trkpt lat="52.009755" lon="-2.173781"><ele>6.39</ele><time>2011-09-07T10:41:02Z</time></trkpt><trkpt lat="52.009688" lon="-2.173658"><ele>4.94</ele><time>2011-09-07T10:41:11Z</time></trkpt><trkpt lat="52.009625" lon="-2.173561"><ele>5.91</ele><time>2011-09-07T10:41:19Z</time></trkpt><trkpt lat="52.009545" lon="-2.173441"><ele>7.83</ele><time>2011-09-07T10:41:30Z</time></trkpt><trkpt lat="52.009499" lon="-2.173387"><ele>8.79</ele><time>2011-09-07T10:41:45Z</time></trkpt><trkpt lat="52.009429" lon="-2.173217"><ele>9.75</ele><time>2011-09-07T10:41:57Z</time></trkpt><trkpt lat="52.009367" lon="-2.173094"><ele>8.31</ele><time>2011-09-07T10:42:06Z</time></trkpt><trkpt lat="52.009293" lon="-2.172935"><ele>7.83</ele><time>2011-09-07T10:42:18Z</time></trkpt><trkpt lat="52.009205" lon="-2.172747"><ele>8.79</ele><time>2011-09-07T10:42:30Z</time></trkpt><trkpt lat="52.009098" lon="-2.172543"><ele>9.75</ele><time>2011-09-07T10:42:45Z</time></trkpt><trkpt lat="52.009011" lon="-2.172346"><ele>9.27</ele><time>2011-09-07T10:42:59Z</time></trkpt><trkpt lat="52.008930" lon="-2.172177"><ele>9.75</ele><time>2011-09-07T10:43:12Z</time></trkpt><trkpt lat="52.008864" lon="-2.172041"><ele>9.75</ele><time>2011-09-07T10:43:23Z</time></trkpt><trkpt lat="52.008806" lon="-2.171922"><ele>10.23</ele><time>2011-09-07T10:43:33Z</time></trkpt><trkpt lat="52.008778" lon="-2.171819"><ele>9.75</ele><time>2011-09-07T10:43:44Z</time></trkpt><trkpt lat="52.008751" lon="-2.171780"><ele>9.75</ele><time>2011-09-07T10:43:49Z</time></trkpt><trkpt lat="52.008723" lon="-2.171731"><ele>9.27</ele><time>2011-09-07T10:43:57Z</time></trkpt><trkpt lat="52.008688" lon="-2.171633"><ele>9.27</ele><time>2011-09-07T10:44:05Z</time></trkpt><trkpt lat="52.008636" lon="-2.171530"><ele>10.23</ele><time>2011-09-07T10:44:13Z</time></trkpt><trkpt lat="52.008600" lon="-2.171493"><ele>10.23</ele><time>2011-09-07T10:44:19Z</time></trkpt><trkpt lat="52.008597" lon="-2.171501"><ele>10.23</ele><time>2011-09-07T10:44:27Z</time></trkpt><trkpt lat="52.008536" lon="-2.171415"><ele>10.23</ele><time>2011-09-07T10:44:35Z</time></trkpt><trkpt lat="52.008502" lon="-2.171362"><ele>9.75</ele><time>2011-09-07T10:44:39Z</time></trkpt><trkpt lat="52.008425" lon="-2.171245"><ele>8.79</ele><time>2011-09-07T10:44:50Z</time></trkpt><trkpt lat="52.008370" lon="-2.171119"><ele>7.83</ele><time>2011-09-07T10:45:00Z</time></trkpt><trkpt lat="52.008311" lon="-2.171001"><ele>6.87</ele><time>2011-09-07T10:45:09Z</time></trkpt><trkpt lat="52.008243" lon="-2.170858"><ele>8.79</ele><time>2011-09-07T10:45:19Z</time></trkpt><trkpt lat="52.008190" lon="-2.170769"><ele>9.27</ele><time>2011-09-07T10:45:27Z</time></trkpt><trkpt lat="52.008114" lon="-2.170625"><ele>9.75</ele><time>2011-09-07T10:45:38Z</time></trkpt><trkpt lat="52.008069" lon="-2.170542"><ele>9.27</ele><time>2011-09-07T10:45:44Z</time></trkpt><trkpt lat="52.008052" lon="-2.170526"><ele>8.31</ele><time>2011-09-07T10:45:51Z</time></trkpt><trkpt lat="52.008038" lon="-2.170507"><ele>8.79</ele><time>2011-09-07T10:46:02Z</time></trkpt><trkpt lat="52.008010" lon="-2.170415"><ele>9.27</ele><time>2011-09-07T10:46:10Z</time></trkpt><trkpt lat="52.007982" lon="-2.170341"><ele>9.75</ele><time>2011-09-07T10:46:15Z</time></trkpt><trkpt lat="52.007960" lon="-2.170227"><ele>9.27</ele><time>2011-09-07T10:46:25Z</time></trkpt><trkpt lat="52.007944" lon="-2.170196"><ele>9.27</ele><time>2011-09-07T10:46:31Z</time></trkpt><trkpt lat="52.007939" lon="-2.170191"><ele>9.27</ele><time>2011-09-07T10:46:32Z</time></trkpt><trkpt lat="52.007871" lon="-2.170038"><ele>10.23</ele><time>2011-09-07T10:46:42Z</time></trkpt><trkpt lat="52.007758" lon="-2.169872"><ele>9.27</ele><time>2011-09-07T10:46:55Z</time></trkpt><trkpt lat="52.007621" lon="-2.169677"><ele>8.79</ele><time>2011-09-07T10:47:10Z</time></trkpt><trkpt lat="52.007509" lon="-2.169498"><ele>7.83</ele><time>2011-09-07T10:47:26Z</time></trkpt><trkpt lat="52.007395" lon="-2.169292"><ele>7.35</ele><time>2011-09-07T10:47:42Z</time></trkpt><trkpt lat="52.007295" lon="-2.169110"><ele>8.31</ele><time>2011-09-07T10:47:55Z</time></trkpt><trkpt lat="52.007236" lon="-2.169018"><ele>8.31</ele><time>2011-09-07T10:48:04Z</time></trkpt><trkpt lat="52.007103" lon="-2.168779"><ele>8.31</ele><time>2011-09-07T10:48:22Z</time></trkpt><trkpt lat="52.006995" lon="-2.168585"><ele>8.31</ele><time>2011-09-07T10:48:37Z</time></trkpt><trkpt lat="52.006897" lon="-2.168408"><ele>8.79</ele><time>2011-09-07T10:48:51Z</time></trkpt><trkpt lat="52.006762" lon="-2.168159"><ele>9.75</ele><time>2011-09-07T10:49:10Z</time></trkpt><trkpt lat="52.006654" lon="-2.167972"><ele>10.71</ele><time>2011-09-07T10:49:25Z</time></trkpt><trkpt lat="52.006565" lon="-2.167805"><ele>10.71</ele><time>2011-09-07T10:49:39Z</time></trkpt><trkpt lat="52.006475" lon="-2.167642"><ele>9.27</ele><time>2011-09-07T10:49:54Z</time></trkpt><trkpt lat="52.006431" lon="-2.167495"><ele>9.27</ele><time>2011-09-07T10:50:06Z</time></trkpt><trkpt lat="52.006362" lon="-2.167359"><ele>9.27</ele><time>2011-09-07T10:50:16Z</time></trkpt><trkpt lat="52.006314" lon="-2.167205"><ele>9.27</ele><time>2011-09-07T10:50:27Z</time></trkpt><trkpt lat="52.006286" lon="-2.167093"><ele>8.79</ele><time>2011-09-07T10:50:34Z</time></trkpt><trkpt lat="52.006262" lon="-2.166947"><ele>9.27</ele><time>2011-09-07T10:50:44Z</time></trkpt><trkpt lat="52.006268" lon="-2.166885"><ele>8.31</ele><time>2011-09-07T10:50:51Z</time></trkpt><trkpt lat="52.006290" lon="-2.166870"><ele>9.27</ele><time>2011-09-07T10:50:59Z</time></trkpt><trkpt lat="52.006301" lon="-2.166836"><ele>10.71</ele><time>2011-09-07T10:51:09Z</time></trkpt><trkpt lat="52.006303" lon="-2.166828"><ele>11.19</ele><time>2011-09-07T10:51:20Z</time></trkpt><trkpt lat="52.006290" lon="-2.166809"><ele>10.71</ele><time>2011-09-07T10:51:28Z</time></trkpt><trkpt lat="52.006276" lon="-2.166802"><ele>10.71</ele><time>2011-09-07T10:51:35Z</time></trkpt><trkpt lat="52.006227" lon="-2.166724"><ele>10.23</ele><time>2011-09-07T10:51:43Z</time></trkpt><trkpt lat="52.006202" lon="-2.166664"><ele>10.23</ele><time>2011-09-07T10:51:47Z</time></trkpt><trkpt lat="52.006130" lon="-2.166563"><ele>11.19</ele><time>2011-09-07T10:51:56Z</time></trkpt><trkpt lat="52.006080" lon="-2.166474"><ele>11.67</ele><time>2011-09-07T10:52:04Z</time></trkpt><trkpt lat="52.005991" lon="-2.166398"><ele>11.19</ele><time>2011-09-07T10:52:12Z</time></trkpt><trkpt lat="52.005888" lon="-2.166321"><ele>11.19</ele><time>2011-09-07T10:52:21Z</time></trkpt><trkpt lat="52.005836" lon="-2.166260"><ele>11.19</ele><time>2011-09-07T10:52:28Z</time></trkpt><trkpt lat="52.005803" lon="-2.166203"><ele>11.67</ele><time>2011-09-07T10:52:38Z</time></trkpt><trkpt lat="52.005764" lon="-2.166145"><ele>11.19</ele><time>2011-09-07T10:52:46Z</time></trkpt><trkpt lat="52.005697" lon="-2.166079"><ele>11.67</ele><time>2011-09-07T10:52:55Z</time></trkpt><trkpt lat="52.005658" lon="-2.166031"><ele>12.15</ele><time>2011-09-07T10:53:01Z</time></trkpt><trkpt lat="52.005624" lon="-2.165975"><ele>12.15</ele><time>2011-09-07T10:53:08Z</time></trkpt><trkpt lat="52.005568" lon="-2.165914"><ele>12.15</ele><time>2011-09-07T10:53:25Z</time></trkpt><trkpt lat="52.005510" lon="-2.165835"><ele>11.67</ele><time>2011-09-07T10:53:33Z</time></trkpt><trkpt lat="52.005488" lon="-2.165806"><ele>11.67</ele><time>2011-09-07T10:53:36Z</time></trkpt><trkpt lat="52.005449" lon="-2.165758"><ele>10.71</ele><time>2011-09-07T10:53:45Z</time></trkpt><trkpt lat="52.005487" lon="-2.165724"><ele>9.75</ele><time>2011-09-07T10:54:13Z</time></trkpt><trkpt lat="52.005448" lon="-2.165633"><ele>9.75</ele><time>2011-09-07T10:54:21Z</time></trkpt><trkpt lat="52.005353" lon="-2.165517"><ele>7.35</ele><time>2011-09-07T10:54:30Z</time></trkpt><trkpt lat="52.005269" lon="-2.165411"><ele>5.91</ele><time>2011-09-07T10:54:39Z</time></trkpt><trkpt lat="52.005190" lon="-2.165331"><ele>3.98</ele><time>2011-09-07T10:54:46Z</time></trkpt><trkpt lat="52.005172" lon="-2.165301"><ele>3.98</ele><time>2011-09-07T10:54:48Z</time></trkpt><trkpt lat="52.005097" lon="-2.165181"><ele>3.50</ele><time>2011-09-07T10:54:56Z</time></trkpt><trkpt lat="52.005040" lon="-2.165076"><ele>3.02</ele><time>2011-09-07T10:55:04Z</time></trkpt><trkpt lat="52.004947" lon="-2.164932"><ele>3.98</ele><time>2011-09-07T10:55:13Z</time></trkpt><trkpt lat="52.004813" lon="-2.164838"><ele>3.02</ele><time>2011-09-07T10:55:25Z</time></trkpt><trkpt lat="52.004784" lon="-2.164773"><ele>0.62</ele><time>2011-09-07T10:55:31Z</time></trkpt><trkpt lat="52.004739" lon="-2.164678"><ele>2.54</ele><time>2011-09-07T10:55:39Z</time></trkpt><trkpt lat="52.004683" lon="-2.164553"><ele>4.94</ele><time>2011-09-07T10:55:50Z</time></trkpt><trkpt lat="52.004585" lon="-2.164454"><ele>7.35</ele><time>2011-09-07T10:56:00Z</time></trkpt><trkpt lat="52.004510" lon="-2.164392"><ele>8.79</ele><time>2011-09-07T10:56:07Z</time></trkpt><trkpt lat="52.004467" lon="-2.164265"><ele>9.27</ele><time>2011-09-07T10:56:16Z</time></trkpt><trkpt lat="52.004372" lon="-2.164183"><ele>6.87</ele><time>2011-09-07T10:56:26Z</time></trkpt><trkpt lat="52.004317" lon="-2.164144"><ele>4.94</ele><time>2011-09-07T10:56:36Z</time></trkpt><trkpt lat="52.004285" lon="-2.164089"><ele>3.98</ele><time>2011-09-07T10:56:41Z</time></trkpt><trkpt lat="52.004280" lon="-2.164078"><ele>3.50</ele><time>2011-09-07T10:56:42Z</time></trkpt><trkpt lat="52.004236" lon="-2.164006"><ele>2.54</ele><time>2011-09-07T10:56:49Z</time></trkpt><trkpt lat="52.004145" lon="-2.163903"><ele>1.10</ele><time>2011-09-07T10:57:00Z</time></trkpt><trkpt lat="52.004080" lon="-2.163847"><ele>0.14</ele><time>2011-09-07T10:57:10Z</time></trkpt><trkpt lat="52.004056" lon="-2.163871"><ele>1.58</ele><time>2011-09-07T10:57:31Z</time></trkpt><trkpt lat="52.004037" lon="-2.163852"><ele>3.02</ele><time>2011-09-07T10:57:40Z</time></trkpt><trkpt lat="52.003980" lon="-2.163819"><ele>3.50</ele><time>2011-09-07T10:57:54Z</time></trkpt><trkpt lat="52.003964" lon="-2.163765"><ele>3.98</ele><time>2011-09-07T10:58:05Z</time></trkpt><trkpt lat="52.003939" lon="-2.163749"><ele>4.46</ele><time>2011-09-07T10:58:09Z</time></trkpt><trkpt lat="52.003858" lon="-2.163747"><ele>4.94</ele><time>2011-09-07T10:58:19Z</time></trkpt><trkpt lat="52.003769" lon="-2.163691"><ele>5.42</ele><time>2011-09-07T10:58:29Z</time></trkpt><trkpt lat="52.003653" lon="-2.163659"><ele>5.91</ele><time>2011-09-07T10:58:41Z</time></trkpt><trkpt lat="52.003574" lon="-2.163596"><ele>6.39</ele><time>2011-09-07T10:58:49Z</time></trkpt><trkpt lat="52.003505" lon="-2.163543"><ele>7.83</ele><time>2011-09-07T10:58:58Z</time></trkpt><trkpt lat="52.003450" lon="-2.163529"><ele>9.75</ele><time>2011-09-07T10:59:09Z</time></trkpt><trkpt lat="52.003405" lon="-2.163487"><ele>10.23</ele><time>2011-09-07T10:59:22Z</time></trkpt><trkpt lat="52.003307" lon="-2.163430"><ele>10.23</ele><time>2011-09-07T10:59:33Z</time></trkpt><trkpt lat="52.003241" lon="-2.163397"><ele>11.67</ele><time>2011-09-07T10:59:41Z</time></trkpt><trkpt lat="52.003162" lon="-2.163383"><ele>12.15</ele><time>2011-09-07T10:59:50Z</time></trkpt><trkpt lat="52.003125" lon="-2.163376"><ele>12.15</ele><time>2011-09-07T10:59:55Z</time></trkpt><trkpt lat="52.003025" lon="-2.163355"><ele>12.15</ele><time>2011-09-07T11:00:05Z</time></trkpt><trkpt lat="52.003008" lon="-2.163350"><ele>11.67</ele><time>2011-09-07T11:00:07Z</time></trkpt><trkpt lat="52.002911" lon="-2.163318"><ele>12.63</ele><time>2011-09-07T11:00:16Z</time></trkpt><trkpt lat="52.002827" lon="-2.163248"><ele>11.67</ele><time>2011-09-07T11:00:25Z</time></trkpt><trkpt lat="52.002726" lon="-2.163196"><ele>8.31</ele><time>2011-09-07T11:00:36Z</time></trkpt><trkpt lat="52.002644" lon="-2.163156"><ele>7.83</ele><time>2011-09-07T11:00:46Z</time></trkpt><trkpt lat="52.002558" lon="-2.163105"><ele>6.87</ele><time>2011-09-07T11:00:57Z</time></trkpt><trkpt lat="52.002431" lon="-2.163053"><ele>6.87</ele><time>2011-09-07T11:01:09Z</time></trkpt><trkpt lat="52.002358" lon="-2.162996"><ele>8.31</ele><time>2011-09-07T11:01:17Z</time></trkpt><trkpt lat="52.002300" lon="-2.162966"><ele>8.79</ele><time>2011-09-07T11:01:25Z</time></trkpt><trkpt lat="52.002238" lon="-2.162966"><ele>9.27</ele><time>2011-09-07T11:01:32Z</time></trkpt><trkpt lat="52.002197" lon="-2.162990"><ele>9.75</ele><time>2011-09-07T11:01:39Z</time></trkpt><trkpt lat="52.002141" lon="-2.163010"><ele>10.23</ele><time>2011-09-07T11:01:48Z</time></trkpt><trkpt lat="52.002096" lon="-2.163024"><ele>9.27</ele><time>2011-09-07T11:01:57Z</time></trkpt><trkpt lat="52.002062" lon="-2.162993"><ele>8.31</ele><time>2011-09-07T11:02:11Z</time></trkpt><trkpt lat="52.002025" lon="-2.162991"><ele>8.31</ele><time>2011-09-07T11:02:20Z</time></trkpt><trkpt lat="52.002006" lon="-2.162967"><ele>8.79</ele><time>2011-09-07T11:02:27Z</time></trkpt><trkpt lat="52.001915" lon="-2.162938"><ele>11.67</ele><time>2011-09-07T11:02:37Z</time></trkpt><trkpt lat="52.001902" lon="-2.162910"><ele>11.67</ele><time>2011-09-07T11:02:46Z</time></trkpt><trkpt lat="52.001934" lon="-2.162931"><ele>11.67</ele><time>2011-09-07T11:02:54Z</time></trkpt><trkpt lat="52.001931" lon="-2.162941"><ele>11.67</ele><time>2011-09-07T11:03:04Z</time></trkpt><trkpt lat="52.001923" lon="-2.162900"><ele>11.19</ele><time>2011-09-07T11:03:13Z</time></trkpt><trkpt lat="52.001903" lon="-2.162883"><ele>10.71</ele><time>2011-09-07T11:03:20Z</time></trkpt><trkpt lat="52.001819" lon="-2.162877"><ele>9.75</ele><time>2011-09-07T11:03:30Z</time></trkpt><trkpt lat="52.001742" lon="-2.162883"><ele>9.75</ele><time>2011-09-07T11:03:38Z</time></trkpt><trkpt lat="52.001673" lon="-2.162894"><ele>9.75</ele><time>2011-09-07T11:03:46Z</time></trkpt><trkpt lat="52.001582" lon="-2.162907"><ele>11.67</ele><time>2011-09-07T11:03:55Z</time></trkpt><trkpt lat="52.001517" lon="-2.162890"><ele>11.19</ele><time>2011-09-07T11:04:03Z</time></trkpt><trkpt lat="52.001497" lon="-2.162867"><ele>11.19</ele><time>2011-09-07T11:04:06Z</time></trkpt><trkpt lat="52.001409" lon="-2.162864"><ele>11.67</ele><time>2011-09-07T11:04:16Z</time></trkpt><trkpt lat="52.001390" lon="-2.162898"><ele>12.63</ele><time>2011-09-07T11:04:27Z</time></trkpt><trkpt lat="52.001359" lon="-2.162887"><ele>11.67</ele><time>2011-09-07T11:04:35Z</time></trkpt><trkpt lat="52.001335" lon="-2.162884"><ele>11.19</ele><time>2011-09-07T11:04:48Z</time></trkpt><trkpt lat="52.001288" lon="-2.162885"><ele>10.71</ele><time>2011-09-07T11:04:54Z</time></trkpt><trkpt lat="52.001207" lon="-2.162893"><ele>10.23</ele><time>2011-09-07T11:05:03Z</time></trkpt><trkpt lat="52.001143" lon="-2.162907"><ele>10.23</ele><time>2011-09-07T11:05:11Z</time></trkpt><trkpt lat="52.001139" lon="-2.162906"><ele>10.23</ele><time>2011-09-07T11:05:13Z</time></trkpt><trkpt lat="52.001101" lon="-2.162922"><ele>9.75</ele><time>2011-09-07T11:05:23Z</time></trkpt><trkpt lat="52.001070" lon="-2.162918"><ele>9.27</ele><time>2011-09-07T11:05:34Z</time></trkpt><trkpt lat="52.000982" lon="-2.162918"><ele>9.27</ele><time>2011-09-07T11:05:42Z</time></trkpt><trkpt lat="52.000906" lon="-2.162919"><ele>9.27</ele><time>2011-09-07T11:05:51Z</time></trkpt><trkpt lat="52.000856" lon="-2.162910"><ele>9.75</ele><time>2011-09-07T11:05:57Z</time></trkpt><trkpt lat="52.000786" lon="-2.162928"><ele>9.75</ele><time>2011-09-07T11:06:05Z</time></trkpt><trkpt lat="52.000726" lon="-2.162957"><ele>9.75</ele><time>2011-09-07T11:06:12Z</time></trkpt><trkpt lat="52.000664" lon="-2.162990"><ele>8.79</ele><time>2011-09-07T11:06:20Z</time></trkpt><trkpt lat="52.000606" lon="-2.162997"><ele>8.79</ele><time>2011-09-07T11:06:27Z</time></trkpt><trkpt lat="52.000543" lon="-2.162990"><ele>8.79</ele><time>2011-09-07T11:06:34Z</time></trkpt><trkpt lat="52.000480" lon="-2.162994"><ele>8.31</ele><time>2011-09-07T11:06:41Z</time></trkpt><trkpt lat="52.000407" lon="-2.163012"><ele>10.23</ele><time>2011-09-07T11:06:49Z</time></trkpt><trkpt lat="52.000362" lon="-2.162994"><ele>11.67</ele><time>2011-09-07T11:06:55Z</time></trkpt><trkpt lat="52.000336" lon="-2.162978"><ele>12.63</ele><time>2011-09-07T11:07:01Z</time></trkpt><trkpt lat="52.000289" lon="-2.162949"><ele>13.12</ele><time>2011-09-07T11:07:07Z</time></trkpt><trkpt lat="52.000281" lon="-2.162945"><ele>13.12</ele><time>2011-09-07T11:07:08Z</time></trkpt><trkpt lat="52.000223" lon="-2.162968"><ele>13.60</ele><time>2011-09-07T11:07:15Z</time></trkpt><trkpt lat="52.000175" lon="-2.163007"><ele>13.12</ele><time>2011-09-07T11:07:24Z</time></trkpt><trkpt lat="52.000157" lon="-2.163026"><ele>13.12</ele><time>2011-09-07T11:07:37Z</time></trkpt><trkpt lat="52.000133" lon="-2.163039"><ele>11.67</ele><time>2011-09-07T11:07:43Z</time></trkpt><trkpt lat="52.000072" lon="-2.163152"><ele>10.71</ele><time>2011-09-07T11:07:53Z</time></trkpt><trkpt lat="52.000029" lon="-2.163190"><ele>10.23</ele><time>2011-09-07T11:08:00Z</time></trkpt><trkpt lat="51.999929" lon="-2.163173"><ele>11.19</ele><time>2011-09-07T11:08:12Z</time></trkpt><trkpt lat="51.999861" lon="-2.163193"><ele>12.63</ele><time>2011-09-07T11:08:20Z</time></trkpt><trkpt lat="51.999811" lon="-2.163103"><ele>10.71</ele><time>2011-09-07T11:08:30Z</time></trkpt><trkpt lat="51.999735" lon="-2.163027"><ele>10.23</ele><time>2011-09-07T11:08:39Z</time></trkpt><trkpt lat="51.999694" lon="-2.163019"><ele>9.75</ele><time>2011-09-07T11:08:43Z</time></trkpt><trkpt lat="51.999593" lon="-2.163034"><ele>9.27</ele><time>2011-09-07T11:08:53Z</time></trkpt><trkpt lat="51.999519" lon="-2.163043"><ele>8.79</ele><time>2011-09-07T11:09:01Z</time></trkpt><trkpt lat="51.999462" lon="-2.163072"><ele>8.79</ele><time>2011-09-07T11:09:08Z</time></trkpt><trkpt lat="51.999391" lon="-2.163085"><ele>8.79</ele><time>2011-09-07T11:09:16Z</time></trkpt><trkpt lat="51.999354" lon="-2.163082"><ele>9.27</ele><time>2011-09-07T11:09:20Z</time></trkpt><trkpt lat="51.999317" lon="-2.163079"><ele>10.23</ele><time>2011-09-07T11:09:24Z</time></trkpt><trkpt lat="51.999234" lon="-2.163070"><ele>13.12</ele><time>2011-09-07T11:09:33Z</time></trkpt><trkpt lat="51.999186" lon="-2.163102"><ele>17.44</ele><time>2011-09-07T11:09:40Z</time></trkpt><trkpt lat="51.999125" lon="-2.163109"><ele>21.77</ele><time>2011-09-07T11:09:52Z</time></trkpt><trkpt lat="51.999025" lon="-2.163112"><ele>24.65</ele><time>2011-09-07T11:10:00Z</time></trkpt><trkpt lat="51.998924" lon="-2.163090"><ele>20.81</ele><time>2011-09-07T11:10:09Z</time></trkpt><trkpt lat="51.998865" lon="-2.163077"><ele>17.44</ele><time>2011-09-07T11:10:16Z</time></trkpt><trkpt lat="51.998783" lon="-2.163043"><ele>15.52</ele><time>2011-09-07T11:10:26Z</time></trkpt><trkpt lat="51.998721" lon="-2.163066"><ele>14.08</ele><time>2011-09-07T11:10:34Z</time></trkpt><trkpt lat="51.998662" lon="-2.163081"><ele>13.60</ele><time>2011-09-07T11:10:41Z</time></trkpt><trkpt lat="51.998632" lon="-2.163078"><ele>12.15</ele><time>2011-09-07T11:10:49Z</time></trkpt><trkpt lat="51.998605" lon="-2.163057"><ele>10.71</ele><time>2011-09-07T11:10:54Z</time></trkpt><trkpt lat="51.998488" lon="-2.162995"><ele>10.23</ele><time>2011-09-07T11:11:06Z</time></trkpt><trkpt lat="51.998387" lon="-2.162996"><ele>10.71</ele><time>2011-09-07T11:11:16Z</time></trkpt><trkpt lat="51.998297" lon="-2.163014"><ele>10.71</ele><time>2011-09-07T11:11:25Z</time></trkpt><trkpt lat="51.998198" lon="-2.163013"><ele>9.27</ele><time>2011-09-07T11:11:35Z</time></trkpt><trkpt lat="51.998107" lon="-2.163000"><ele>9.27</ele><time>2011-09-07T11:11:44Z</time></trkpt><trkpt lat="51.998013" lon="-2.163000"><ele>9.75</ele><time>2011-09-07T11:11:53Z</time></trkpt><trkpt lat="51.997906" lon="-2.162977"><ele>10.23</ele><time>2011-09-07T11:12:03Z</time></trkpt><trkpt lat="51.997807" lon="-2.162967"><ele>10.23</ele><time>2011-09-07T11:12:13Z</time></trkpt><trkpt lat="51.997720" lon="-2.162983"><ele>10.23</ele><time>2011-09-07T11:12:22Z</time></trkpt><trkpt lat="51.997626" lon="-2.163015"><ele>10.23</ele><time>2011-09-07T11:12:32Z</time></trkpt><trkpt lat="51.997541" lon="-2.163019"><ele>8.79</ele><time>2011-09-07T11:12:41Z</time></trkpt><trkpt lat="51.997439" lon="-2.163013"><ele>9.27</ele><time>2011-09-07T11:12:51Z</time></trkpt><trkpt lat="51.997337" lon="-2.163002"><ele>9.27</ele><time>2011-09-07T11:13:01Z</time></trkpt><trkpt lat="51.997243" lon="-2.163005"><ele>8.79</ele><time>2011-09-07T11:13:11Z</time></trkpt><trkpt lat="51.997160" lon="-2.163014"><ele>8.79</ele><time>2011-09-07T11:13:19Z</time></trkpt><trkpt lat="51.997082" lon="-2.163049"><ele>8.31</ele><time>2011-09-07T11:13:26Z</time></trkpt><trkpt lat="51.996994" lon="-2.163099"><ele>8.31</ele><time>2011-09-07T11:13:36Z</time></trkpt><trkpt lat="51.996907" lon="-2.163097"><ele>8.79</ele><time>2011-09-07T11:13:45Z</time></trkpt><trkpt lat="51.996821" lon="-2.163078"><ele>9.27</ele><time>2011-09-07T11:13:54Z</time></trkpt><trkpt lat="51.996710" lon="-2.163021"><ele>8.79</ele><time>2011-09-07T11:14:05Z</time></trkpt><trkpt lat="51.996636" lon="-2.162952"><ele>8.31</ele><time>2011-09-07T11:14:14Z</time></trkpt><trkpt lat="51.996598" lon="-2.162868"><ele>8.79</ele><time>2011-09-07T11:14:22Z</time></trkpt><trkpt lat="51.996590" lon="-2.162716"><ele>8.79</ele><time>2011-09-07T11:14:32Z</time></trkpt><trkpt lat="51.996589" lon="-2.162583"><ele>8.31</ele><time>2011-09-07T11:14:41Z</time></trkpt><trkpt lat="51.996568" lon="-2.162407"><ele>8.79</ele><time>2011-09-07T11:14:52Z</time></trkpt><trkpt lat="51.996543" lon="-2.162279"><ele>8.31</ele><time>2011-09-07T11:15:01Z</time></trkpt><trkpt lat="51.996517" lon="-2.162145"><ele>7.83</ele><time>2011-09-07T11:15:10Z</time></trkpt><trkpt lat="51.996515" lon="-2.162032"><ele>7.83</ele><time>2011-09-07T11:15:17Z</time></trkpt><trkpt lat="51.996496" lon="-2.161891"><ele>8.31</ele><time>2011-09-07T11:15:26Z</time></trkpt><trkpt lat="51.996474" lon="-2.161794"><ele>7.83</ele><time>2011-09-07T11:15:34Z</time></trkpt><trkpt lat="51.996466" lon="-2.161763"><ele>7.35</ele><time>2011-09-07T11:15:46Z</time></trkpt><trkpt lat="51.996450" lon="-2.161712"><ele>7.35</ele><time>2011-09-07T11:15:55Z</time></trkpt><trkpt lat="51.996421" lon="-2.161567"><ele>7.83</ele><time>2011-09-07T11:16:06Z</time></trkpt><trkpt lat="51.996393" lon="-2.161450"><ele>7.83</ele><time>2011-09-07T11:16:14Z</time></trkpt><trkpt lat="51.996358" lon="-2.161302"><ele>7.35</ele><time>2011-09-07T11:16:24Z</time></trkpt><trkpt lat="51.996320" lon="-2.161201"><ele>6.87</ele><time>2011-09-07T11:16:32Z</time></trkpt><trkpt lat="51.996283" lon="-2.161076"><ele>5.91</ele><time>2011-09-07T11:16:41Z</time></trkpt><trkpt lat="51.996254" lon="-2.160974"><ele>6.39</ele><time>2011-09-07T11:16:50Z</time></trkpt><trkpt lat="51.996247" lon="-2.160894"><ele>6.39</ele><time>2011-09-07T11:16:57Z</time></trkpt><trkpt lat="51.996235" lon="-2.160850"><ele>6.87</ele><time>2011-09-07T11:17:06Z</time></trkpt><trkpt lat="51.996227" lon="-2.160795"><ele>6.87</ele><time>2011-09-07T11:17:18Z</time></trkpt><trkpt lat="51.996207" lon="-2.160651"><ele>6.39</ele><time>2011-09-07T11:17:27Z</time></trkpt><trkpt lat="51.996197" lon="-2.160492"><ele>6.87</ele><time>2011-09-07T11:17:37Z</time></trkpt><trkpt lat="51.996198" lon="-2.160375"><ele>6.39</ele><time>2011-09-07T11:17:44Z</time></trkpt><trkpt lat="51.996223" lon="-2.160242"><ele>6.87</ele><time>2011-09-07T11:17:53Z</time></trkpt><trkpt lat="51.996246" lon="-2.160084"><ele>7.35</ele><time>2011-09-07T11:18:03Z</time></trkpt><trkpt lat="51.996269" lon="-2.159960"><ele>7.83</ele><time>2011-09-07T11:18:11Z</time></trkpt><trkpt lat="51.996304" lon="-2.159833"><ele>7.35</ele><time>2011-09-07T11:18:20Z</time></trkpt><trkpt lat="51.996343" lon="-2.159697"><ele>7.35</ele><time>2011-09-07T11:18:29Z</time></trkpt><trkpt lat="51.996382" lon="-2.159540"><ele>7.35</ele><time>2011-09-07T11:18:39Z</time></trkpt><trkpt lat="51.996408" lon="-2.159394"><ele>7.35</ele><time>2011-09-07T11:18:49Z</time></trkpt><trkpt lat="51.996441" lon="-2.159236"><ele>7.83</ele><time>2011-09-07T11:18:59Z</time></trkpt><trkpt lat="51.996475" lon="-2.159096"><ele>7.83</ele><time>2011-09-07T11:19:08Z</time></trkpt><trkpt lat="51.996502" lon="-2.158932"><ele>7.83</ele><time>2011-09-07T11:19:18Z</time></trkpt><trkpt lat="51.996545" lon="-2.158765"><ele>7.35</ele><time>2011-09-07T11:19:29Z</time></trkpt><trkpt lat="51.996588" lon="-2.158613"><ele>7.35</ele><time>2011-09-07T11:19:40Z</time></trkpt><trkpt lat="51.996634" lon="-2.158501"><ele>7.35</ele><time>2011-09-07T11:19:49Z</time></trkpt><trkpt lat="51.996682" lon="-2.158388"><ele>7.35</ele><time>2011-09-07T11:19:58Z</time></trkpt><trkpt lat="51.996732" lon="-2.158309"><ele>7.35</ele><time>2011-09-07T11:20:06Z</time></trkpt><trkpt lat="51.996739" lon="-2.158300"><ele>7.35</ele><time>2011-09-07T11:20:07Z</time></trkpt><trkpt lat="51.996809" lon="-2.158228"><ele>7.35</ele><time>2011-09-07T11:20:16Z</time></trkpt><trkpt lat="51.996860" lon="-2.158184"><ele>7.35</ele><time>2011-09-07T11:20:24Z</time></trkpt><trkpt lat="51.996954" lon="-2.158118"><ele>7.35</ele><time>2011-09-07T11:20:36Z</time></trkpt><trkpt lat="51.997006" lon="-2.158098"><ele>7.83</ele><time>2011-09-07T11:20:44Z</time></trkpt><trkpt lat="51.997041" lon="-2.158089"><ele>7.35</ele><time>2011-09-07T11:20:57Z</time></trkpt><trkpt lat="51.997123" lon="-2.158063"><ele>7.35</ele><time>2011-09-07T11:21:05Z</time></trkpt><trkpt lat="51.997193" lon="-2.158037"><ele>7.83</ele><time>2011-09-07T11:21:13Z</time></trkpt><trkpt lat="51.997287" lon="-2.158001"><ele>7.83</ele><time>2011-09-07T11:21:22Z</time></trkpt><trkpt lat="51.997395" lon="-2.157960"><ele>8.31</ele><time>2011-09-07T11:21:32Z</time></trkpt><trkpt lat="51.997488" lon="-2.157919"><ele>8.31</ele><time>2011-09-07T11:21:41Z</time></trkpt><trkpt lat="51.997581" lon="-2.157884"><ele>8.31</ele><time>2011-09-07T11:21:50Z</time></trkpt><trkpt lat="51.997674" lon="-2.157856"><ele>8.79</ele><time>2011-09-07T11:21:59Z</time></trkpt><trkpt lat="51.997780" lon="-2.157823"><ele>9.27</ele><time>2011-09-07T11:22:10Z</time></trkpt><trkpt lat="51.997892" lon="-2.157790"><ele>9.27</ele><time>2011-09-07T11:22:21Z</time></trkpt><trkpt lat="51.998000" lon="-2.157758"><ele>9.27</ele><time>2011-09-07T11:22:31Z</time></trkpt><trkpt lat="51.998024" lon="-2.157744"><ele>9.75</ele><time>2011-09-07T11:22:34Z</time></trkpt><trkpt lat="51.998109" lon="-2.157743"><ele>9.75</ele><time>2011-09-07T11:22:43Z</time></trkpt><trkpt lat="51.998150" lon="-2.157750"><ele>9.27</ele><time>2011-09-07T11:22:49Z</time></trkpt><trkpt lat="51.998226" lon="-2.157749"><ele>9.27</ele><time>2011-09-07T11:22:56Z</time></trkpt><trkpt lat="51.998302" lon="-2.157756"><ele>9.27</ele><time>2011-09-07T11:23:04Z</time></trkpt><trkpt lat="51.998350" lon="-2.157783"><ele>10.71</ele><time>2011-09-07T11:23:09Z</time></trkpt><trkpt lat="51.998434" lon="-2.157838"><ele>10.23</ele><time>2011-09-07T11:23:19Z</time></trkpt><trkpt lat="51.998474" lon="-2.157811"><ele>9.27</ele><time>2011-09-07T11:23:26Z</time></trkpt><trkpt lat="51.998495" lon="-2.157826"><ele>7.35</ele><time>2011-09-07T11:23:33Z</time></trkpt><trkpt lat="51.998514" lon="-2.157833"><ele>6.87</ele><time>2011-09-07T11:23:40Z</time></trkpt><trkpt lat="51.998516" lon="-2.157781"><ele>6.87</ele><time>2011-09-07T11:23:50Z</time></trkpt><trkpt lat="51.998514" lon="-2.157732"><ele>7.35</ele><time>2011-09-07T11:23:58Z</time></trkpt><trkpt lat="51.998533" lon="-2.157618"><ele>7.83</ele><time>2011-09-07T11:24:06Z</time></trkpt><trkpt lat="51.998535" lon="-2.157604"><ele>7.83</ele><time>2011-09-07T11:24:07Z</time></trkpt><trkpt lat="51.998507" lon="-2.157512"><ele>8.79</ele><time>2011-09-07T11:24:15Z</time></trkpt><trkpt lat="51.998456" lon="-2.157446"><ele>9.75</ele><time>2011-09-07T11:24:22Z</time></trkpt><trkpt lat="51.998428" lon="-2.157417"><ele>9.75</ele><time>2011-09-07T11:24:26Z</time></trkpt><trkpt lat="51.998435" lon="-2.157281"><ele>9.75</ele><time>2011-09-07T11:24:35Z</time></trkpt><trkpt lat="51.998406" lon="-2.157216"><ele>9.75</ele><time>2011-09-07T11:24:40Z</time></trkpt><trkpt lat="51.998323" lon="-2.157113"><ele>10.23</ele><time>2011-09-07T11:24:50Z</time></trkpt><trkpt lat="51.998270" lon="-2.157049"><ele>10.23</ele><time>2011-09-07T11:24:57Z</time></trkpt><trkpt lat="51.998219" lon="-2.156973"><ele>10.71</ele><time>2011-09-07T11:25:05Z</time></trkpt><trkpt lat="51.998160" lon="-2.156874"><ele>11.67</ele><time>2011-09-07T11:25:13Z</time></trkpt><trkpt lat="51.998092" lon="-2.156800"><ele>11.19</ele><time>2011-09-07T11:25:20Z</time></trkpt><trkpt lat="51.998013" lon="-2.156698"><ele>10.71</ele><time>2011-09-07T11:25:30Z</time></trkpt><trkpt lat="51.998002" lon="-2.156621"><ele>9.27</ele><time>2011-09-07T11:25:37Z</time></trkpt><trkpt lat="51.998026" lon="-2.156585"><ele>8.31</ele><time>2011-09-07T11:25:41Z</time></trkpt><trkpt lat="51.998114" lon="-2.156571"><ele>8.31</ele><time>2011-09-07T11:25:50Z</time></trkpt><trkpt lat="51.998199" lon="-2.156539"><ele>8.79</ele><time>2011-09-07T11:25:59Z</time></trkpt><trkpt lat="51.998257" lon="-2.156548"><ele>7.83</ele><time>2011-09-07T11:26:08Z</time></trkpt><trkpt lat="51.998252" lon="-2.156545"><ele>8.31</ele><time>2011-09-07T11:26:18Z</time></trkpt></trkseg></trk></gpx>